Time,TemperatureF,DewpointF,PressureIn,WindDirection,WindDirectionDegrees,WindSpeedMPH,WindSpeedGustMPH,Humidity,HourlyPrecipIn,Conditions,Clouds,dailyrainin,SoftwareType,DateUTC
2013-08-01 00:01:00,64.9,61.6,30.06,SSW,203,0.0,0.0,89,0.00,,,0.00,WUHU216HW,2013-08-01 04:01:00,
2013-08-01 00:02:00,64.9,61.6,30.06,SSW,203,0.0,0.0,89,0.00,,,0.00,WUHU216HW,2013-08-01 04:02:00,
2013-08-01 00:07:00,64.7,61.5,30.06,SSW,203,0.0,0.0,89,0.00,,,0.00,WUHU216HW,2013-08-01 04:07:00,
2013-08-01 00:12:00,64.5,61.3,30.06,SSW,203,0.0,0.0,89,0.00,,,0.00,WUHU216HW,2013-08-01 04:12:00,
2013-08-01 00:17:00,64.5,61.3,30.06,SSW,203,0.0,0.0,89,0.00,,,0.00,WUHU216HW,2013-08-01 04:17:00,
2013-08-01 00:22:00,64.5,61.6,30.06,SSW,203,0.0,0.0,90,0.00,,,0.00,WUHU216HW,2013-08-01 04:22:00,
2013-08-01 00:27:00,64.5,61.6,30.06,SSW,203,0.0,0.0,90,0.00,,,0.00,WUHU216HW,2013-08-01 04:27:00,
2013-08-01 00:32:00,64.5,61.8,30.06,SSW,203,0.0,0.0,90,0.00,,,0.00,WUHU216HW,2013-08-01 04:32:00,
2013-08-01 00:37:00,64.5,61.6,30.07,WNW,293,0.0,0.0,90,0.00,,,0.00,WUHU216HW,2013-08-01 04:37:00,
2013-08-01 00:42:00,64.5,61.6,30.07,WNW,293,0.0,0.0,90,0.00,,,0.00,WUHU216HW,2013-08-01 04:42:00,
2013-08-01 00:43:00,64.5,61.6,30.06,WNW,293,0.0,0.0,90,0.00,,,0.00,WUHU216HW,2013-08-01 04:43:00,
2013-08-01 00:54:00,64.5,61.6,30.06,WNW,293,0.0,0.0,90,0.00,,,0.00,WUHU216HW,2013-08-01 04:54:00,
2013-08-01 00:59:00,64.7,61.8,30.07,SSW,203,0.0,0.0,90,0.00,,,0.00,WUHU216HW,2013-08-01 04:59:00,
2013-08-01 01:04:00,64.7,61.8,30.07,SSW,203,1.1,1.1,90,0.00,,,0.00,WUHU216HW,2013-08-01 05:04:00,
2013-08-01 01:09:00,64.9,62.0,30.07,West,270,0.0,1.1,90,0.00,,,0.00,WUHU216HW,2013-08-01 05:09:00,
2013-08-01 01:14:00,64.9,62.0,30.07,West,270,0.0,0.0,90,0.00,,,0.00,WUHU216HW,2013-08-01 05:14:00,
2013-08-01 01:19:00,65.1,62.1,30.07,SSW,203,0.0,0.0,90,0.00,,,0.00,WUHU216HW,2013-08-01 05:19:00,
2013-08-01 01:24:00,65.3,62.3,30.08,SW,225,1.3,1.3,90,0.00,,,0.00,WUHU216HW,2013-08-01 05:24:00,
2013-08-01 01:29:00,65.4,62.4,30.07,SSW,203,0.0,4.0,90,0.00,,,0.00,WUHU216HW,2013-08-01 05:29:00,
2013-08-01 01:34:00,65.4,62.7,30.07,SSW,203,0.0,4.0,91,0.00,,,0.00,WUHU216HW,2013-08-01 05:34:00,
2013-08-01 01:39:00,65.6,62.9,30.07,West,270,0.0,0.6,91,0.00,,,0.00,WUHU216HW,2013-08-01 05:39:00,
2013-08-01 01:44:00,65.8,63.1,30.07,WNW,293,1.5,1.5,91,0.00,,,0.00,WUHU216HW,2013-08-01 05:44:00,
2013-08-01 01:49:00,65.6,62.9,30.07,West,270,0.0,1.5,91,0.00,,,0.00,WUHU216HW,2013-08-01 05:49:00,
2013-08-01 01:54:00,65.8,63.1,30.07,WSW,248,1.1,1.3,91,0.00,,,0.00,WUHU216HW,2013-08-01 05:54:00,
2013-08-01 01:59:00,65.6,62.9,30.06,SW,225,0.0,1.1,91,0.00,,,0.00,WUHU216HW,2013-08-01 05:59:00,
2013-08-01 02:04:00,65.8,63.1,30.06,SSW,203,3.8,3.8,91,0.00,,,0.00,WUHU216HW,2013-08-01 06:04:00,
2013-08-01 02:09:00,65.8,63.1,30.06,SW,225,2.9,3.8,91,0.00,,,0.00,WUHU216HW,2013-08-01 06:09:00,
2013-08-01 02:15:00,65.8,63.1,30.06,SW,225,0.0,3.8,91,0.00,,,0.00,WUHU216HW,2013-08-01 06:15:00,
2013-08-01 02:20:00,65.8,63.1,30.06,WSW,248,0.0,0.0,91,0.00,,,0.00,WUHU216HW,2013-08-01 06:20:00,
2013-08-01 02:29:00,65.8,63.1,30.05,WSW,248,0.0,0.0,91,0.00,,,0.00,WUHU216HW,2013-08-01 06:29:00,
2013-08-01 02:34:00,65.8,63.1,30.05,SW,225,0.0,1.5,91,0.00,,,0.00,WUHU216HW,2013-08-01 06:34:00,
2013-08-01 02:39:00,65.8,63.1,30.04,SW,225,3.5,3.5,91,0.00,,,0.00,WUHU216HW,2013-08-01 06:39:00,
2013-08-01 02:44:00,65.6,62.9,30.04,SW,225,1.7,3.5,91,0.00,,,0.00,WUHU216HW,2013-08-01 06:44:00,
2013-08-01 02:49:00,65.6,62.6,30.04,West,270,0.0,4.6,90,0.00,,,0.00,WUHU216HW,2013-08-01 06:49:00,
2013-08-01 02:54:00,65.4,62.4,30.04,WNW,293,0.6,4.6,90,0.00,,,0.00,WUHU216HW,2013-08-01 06:54:00,
2013-08-01 02:59:00,65.4,62.4,30.04,WNW,293,0.8,0.8,90,0.00,,,0.00,WUHU216HW,2013-08-01 06:59:00,
2013-08-01 03:04:00,65.4,62.4,30.05,SW,225,0.0,0.8,90,0.00,,,0.00,WUHU216HW,2013-08-01 07:04:00,
2013-08-01 03:09:00,65.4,62.4,30.04,West,270,0.0,4.4,90,0.00,,,0.00,WUHU216HW,2013-08-01 07:09:00,
2013-08-01 03:14:00,65.4,62.4,30.05,SW,225,0.0,4.4,90,0.00,,,0.00,WUHU216HW,2013-08-01 07:14:00,
2013-08-01 03:19:00,65.4,62.4,30.05,WNW,293,2.6,2.6,90,0.00,,,0.00,WUHU216HW,2013-08-01 07:19:00,
2013-08-01 03:24:00,65.4,62.4,30.05,SSW,203,2.4,2.6,90,0.00,,,0.00,WUHU216HW,2013-08-01 07:24:00,
2013-08-01 03:30:00,65.6,62.6,30.05,WSW,248,0.0,2.6,90,0.00,,,0.00,WUHU216HW,2013-08-01 07:30:00,
2013-08-01 03:35:00,65.8,62.8,30.05,West,270,0.0,0.0,90,0.00,,,0.00,WUHU216HW,2013-08-01 07:35:00,
2013-08-01 03:40:00,65.8,62.8,30.05,WSW,248,0.0,0.0,90,0.00,,,0.00,WUHU216HW,2013-08-01 07:40:00,
2013-08-01 03:45:00,65.8,62.8,30.05,West,270,0.0,0.0,90,0.00,,,0.00,WUHU216HW,2013-08-01 07:45:00,
2013-08-01 03:50:00,66.0,62.9,30.05,West,270,2.9,2.9,90,0.00,,,0.00,WUHU216HW,2013-08-01 07:50:00,
2013-08-01 03:55:00,66.0,62.9,30.05,WNW,293,0.8,2.9,90,0.00,,,0.00,WUHU216HW,2013-08-01 07:55:00,
2013-08-01 04:00:00,66.0,63.2,30.05,South,180,0.6,2.9,91,0.00,,,0.00,WUHU216HW,2013-08-01 08:00:00,
2013-08-01 04:05:00,66.2,63.4,30.05,West,270,1.5,1.5,91,0.00,,,0.00,WUHU216HW,2013-08-01 08:05:00,
2013-08-01 04:10:00,66.2,63.4,30.05,NNW,338,0.0,1.5,91,0.00,,,0.00,WUHU216HW,2013-08-01 08:10:00,
2013-08-01 04:16:00,66.2,63.4,30.05,NW,315,0.0,1.5,91,0.00,,,0.00,WUHU216HW,2013-08-01 08:16:00,
2013-08-01 04:21:00,66.2,63.4,30.05,West,270,0.0,0.0,91,0.00,,,0.00,WUHU216HW,2013-08-01 08:21:00,
2013-08-01 04:26:00,66.2,63.4,30.05,West,270,0.0,0.0,91,0.00,,,0.00,WUHU216HW,2013-08-01 08:26:00,
2013-08-01 04:31:00,66.3,63.6,30.05,WSW,248,1.3,1.3,91,0.00,,,0.00,WUHU216HW,2013-08-01 08:31:00,
2013-08-01 04:36:00,66.3,63.6,30.04,West,270,0.6,1.3,91,0.00,,,0.00,WUHU216HW,2013-08-01 08:36:00,
2013-08-01 04:41:00,66.3,63.6,30.04,WSW,248,0.0,1.3,91,0.00,,,0.00,WUHU216HW,2013-08-01 08:41:00,
2013-08-01 04:46:00,66.2,63.4,30.04,West,270,0.0,1.1,91,0.00,,,0.00,WUHU216HW,2013-08-01 08:46:00,
2013-08-01 04:52:00,66.0,63.2,30.04,West,270,0.0,1.1,91,0.00,,,0.00,WUHU216HW,2013-08-01 08:52:00,
2013-08-01 04:57:00,66.0,63.2,30.04,WSW,248,0.8,0.8,91,0.00,,,0.00,WUHU216HW,2013-08-01 08:57:00,
2013-08-01 05:00:00,66.0,63.2,30.04,WSW,248,0.8,0.8,91,0.00,,,0.00,WUHU216HW,2013-08-01 09:00:00,
2013-08-01 05:01:00,66.0,63.2,30.04,WSW,248,0.8,0.8,91,0.00,,,0.00,WUHU216HW,2013-08-01 09:01:00,
2013-08-01 05:02:00,66.0,63.2,30.04,West,270,0.0,0.8,91,0.00,,,0.00,WUHU216HW,2013-08-01 09:02:00,
2013-08-01 05:03:00,66.0,63.2,30.04,WSW,248,0.8,0.8,91,0.00,,,0.00,WUHU216HW,2013-08-01 09:03:00,
2013-08-01 05:04:00,66.0,63.2,30.04,West,270,0.0,0.8,91,0.00,,,0.00,WUHU216HW,2013-08-01 09:04:00,
2013-08-01 05:05:00,66.0,63.2,30.04,West,270,0.0,0.8,91,0.00,,,0.00,WUHU216HW,2013-08-01 09:05:00,
2013-08-01 05:06:00,66.0,63.2,30.04,WSW,248,0.0,0.8,91,0.00,,,0.00,WUHU216HW,2013-08-01 09:06:00,
2013-08-01 05:07:00,66.0,63.2,30.04,WSW,248,0.0,0.8,91,0.00,,,0.00,WUHU216HW,2013-08-01 09:07:00,
2013-08-01 05:08:00,66.0,63.2,30.04,WSW,248,0.8,0.8,91,0.00,,,0.00,WUHU216HW,2013-08-01 09:08:00,
2013-08-01 05:09:00,66.0,63.2,30.04,WSW,248,0.0,0.8,91,0.00,,,0.00,WUHU216HW,2013-08-01 09:09:00,
2013-08-01 05:10:00,65.8,63.1,30.04,WSW,248,1.1,1.1,91,0.00,,,0.00,WUHU216HW,2013-08-01 09:10:00,
2013-08-01 05:11:00,65.8,63.1,30.04,WSW,248,1.1,1.1,91,0.00,,,0.00,WUHU216HW,2013-08-01 09:11:00,
2013-08-01 05:12:00,65.8,63.1,30.04,WSW,248,1.1,1.1,91,0.00,,,0.00,WUHU216HW,2013-08-01 09:12:00,
2013-08-01 05:13:00,65.8,63.1,30.04,WSW,248,1.1,1.1,91,0.00,,,0.00,WUHU216HW,2013-08-01 09:13:00,
2013-08-01 05:14:00,65.8,63.1,30.04,WSW,248,1.1,1.1,91,0.00,,,0.00,WUHU216HW,2013-08-01 09:14:00,
2013-08-01 05:15:00,65.8,63.1,30.04,WNW,293,0.6,1.1,91,0.00,,,0.00,WUHU216HW,2013-08-01 09:15:00,
2013-08-01 05:16:00,65.8,63.1,30.04,WNW,293,0.6,1.1,91,0.00,,,0.00,WUHU216HW,2013-08-01 09:16:00,
2013-08-01 05:17:00,65.8,63.1,30.04,WNW,293,0.0,1.1,91,0.00,,,0.00,WUHU216HW,2013-08-01 09:17:00,
2013-08-01 05:18:00,65.8,63.1,30.04,WNW,293,0.0,1.1,91,0.00,,,0.00,WUHU216HW,2013-08-01 09:18:00,
2013-08-01 05:19:00,65.8,63.1,30.04,WNW,293,0.0,1.1,91,0.00,,,0.00,WUHU216HW,2013-08-01 09:19:00,
2013-08-01 05:20:00,65.8,63.1,30.04,WNW,293,0.0,1.1,91,0.00,,,0.00,WUHU216HW,2013-08-01 09:20:00,
2013-08-01 05:21:00,65.8,63.1,30.04,WNW,293,0.0,1.1,91,0.00,,,0.00,WUHU216HW,2013-08-01 09:21:00,
2013-08-01 05:22:00,65.8,63.1,30.04,WNW,293,0.0,1.1,91,0.00,,,0.00,WUHU216HW,2013-08-01 09:22:00,
2013-08-01 05:23:00,65.8,63.1,30.04,WNW,293,0.0,1.1,91,0.00,,,0.00,WUHU216HW,2013-08-01 09:23:00,
2013-08-01 05:24:00,65.8,63.1,30.04,WNW,293,0.0,0.6,91,0.00,,,0.00,WUHU216HW,2013-08-01 09:24:00,
2013-08-01 05:25:00,65.8,63.1,30.04,WNW,293,0.0,0.6,91,0.00,,,0.00,WUHU216HW,2013-08-01 09:25:00,
2013-08-01 05:26:00,65.8,63.1,30.04,WNW,293,0.0,0.0,91,0.00,,,0.00,WUHU216HW,2013-08-01 09:26:00,
2013-08-01 05:27:00,65.8,63.1,30.04,WNW,293,0.0,0.0,91,0.00,,,0.00,WUHU216HW,2013-08-01 09:27:00,
2013-08-01 05:28:00,65.8,63.1,30.04,WNW,293,0.0,0.0,91,0.00,,,0.00,WUHU216HW,2013-08-01 09:28:00,
2013-08-01 05:29:00,65.8,63.1,30.04,WNW,293,0.0,0.0,91,0.00,,,0.00,WUHU216HW,2013-08-01 09:29:00,
2013-08-01 05:30:00,65.8,63.1,30.04,WNW,293,0.0,0.0,91,0.00,,,0.00,WUHU216HW,2013-08-01 09:30:00,
2013-08-01 05:31:00,65.8,63.1,30.04,WNW,293,0.0,0.0,91,0.00,,,0.00,WUHU216HW,2013-08-01 09:31:00,
2013-08-01 05:32:00,65.6,62.9,30.04,WNW,293,0.0,0.0,91,0.00,,,0.00,WUHU216HW,2013-08-01 09:32:00,
2013-08-01 05:33:00,65.6,62.9,30.04,WNW,293,0.0,0.0,91,0.00,,,0.00,WUHU216HW,2013-08-01 09:33:00,
2013-08-01 05:34:00,65.6,62.9,30.04,WNW,293,0.0,0.0,91,0.00,,,0.00,WUHU216HW,2013-08-01 09:34:00,
2013-08-01 05:35:00,65.6,62.9,30.04,WNW,293,0.0,0.0,91,0.00,,,0.00,WUHU216HW,2013-08-01 09:35:00,
2013-08-01 05:36:00,65.6,62.9,30.04,WNW,293,0.0,0.0,91,0.00,,,0.00,WUHU216HW,2013-08-01 09:36:00,
2013-08-01 05:37:00,65.6,62.9,30.04,WNW,293,0.0,0.0,91,0.00,,,0.00,WUHU216HW,2013-08-01 09:37:00,
2013-08-01 05:38:00,65.6,62.9,30.04,WNW,293,0.0,0.0,91,0.00,,,0.00,WUHU216HW,2013-08-01 09:38:00,
2013-08-01 05:39:00,65.6,62.9,30.04,WNW,293,0.0,0.0,91,0.00,,,0.00,WUHU216HW,2013-08-01 09:39:00,
2013-08-01 05:40:00,65.6,62.7,30.04,WNW,293,0.0,0.0,91,0.00,,,0.00,WUHU216HW,2013-08-01 09:40:00,
2013-08-01 05:41:00,65.4,62.7,30.04,WNW,293,0.0,0.0,91,0.00,,,0.00,WUHU216HW,2013-08-01 09:41:00,
2013-08-01 05:42:00,65.4,62.7,30.04,WNW,293,0.0,0.0,91,0.00,,,0.00,WUHU216HW,2013-08-01 09:42:00,
2013-08-01 05:43:00,65.4,62.7,30.04,WNW,293,0.0,0.0,91,0.00,,,0.00,WUHU216HW,2013-08-01 09:43:00,
2013-08-01 05:44:00,65.4,62.7,30.04,WNW,293,0.0,0.0,91,0.00,,,0.00,WUHU216HW,2013-08-01 09:44:00,
2013-08-01 05:45:00,65.6,62.9,30.04,WNW,293,0.0,0.0,91,0.00,,,0.00,WUHU216HW,2013-08-01 09:45:00,
2013-08-01 05:46:00,65.6,62.9,30.04,WNW,293,0.0,0.0,91,0.00,,,0.00,WUHU216HW,2013-08-01 09:46:00,
2013-08-01 05:47:00,65.4,62.9,30.04,WNW,293,0.0,0.0,91,0.00,,,0.00,WUHU216HW,2013-08-01 09:47:00,
2013-08-01 05:48:00,65.4,62.9,30.04,WNW,293,0.0,0.0,91,0.00,,,0.00,WUHU216HW,2013-08-01 09:48:00,
2013-08-01 05:49:00,65.4,62.7,30.04,WNW,293,0.0,0.0,91,0.00,,,0.00,WUHU216HW,2013-08-01 09:49:00,
2013-08-01 05:50:00,65.4,62.7,30.04,WNW,293,0.0,0.0,91,0.00,,,0.00,WUHU216HW,2013-08-01 09:50:00,
2013-08-01 05:51:00,65.4,62.7,30.04,WNW,293,0.0,0.0,91,0.00,,,0.00,WUHU216HW,2013-08-01 09:51:00,
2013-08-01 05:52:00,65.4,62.7,30.04,WNW,293,0.0,0.0,91,0.00,,,0.00,WUHU216HW,2013-08-01 09:52:00,
2013-08-01 05:53:00,65.4,62.7,30.04,WNW,293,0.0,0.0,91,0.00,,,0.00,WUHU216HW,2013-08-01 09:53:00,
2013-08-01 05:54:00,65.4,62.7,30.04,WNW,293,0.0,0.0,91,0.00,,,0.00,WUHU216HW,2013-08-01 09:54:00,
2013-08-01 05:55:00,65.4,62.7,30.04,WNW,293,0.0,0.0,91,0.00,,,0.00,WUHU216HW,2013-08-01 09:55:00,
2013-08-01 05:56:00,65.4,62.7,30.04,WNW,293,0.0,0.0,91,0.00,,,0.00,WUHU216HW,2013-08-01 09:56:00,
2013-08-01 05:57:00,65.4,62.7,30.04,WNW,293,0.0,0.0,91,0.00,,,0.00,WUHU216HW,2013-08-01 09:57:00,
2013-08-01 05:58:00,65.4,62.7,30.04,WNW,293,0.0,0.0,91,0.00,,,0.00,WUHU216HW,2013-08-01 09:58:00,
2013-08-01 05:59:00,65.4,62.7,30.04,WNW,293,0.0,0.0,91,0.00,,,0.00,WUHU216HW,2013-08-01 09:59:00,
2013-08-01 06:00:00,65.4,62.7,30.04,WNW,293,0.0,0.0,91,0.00,,,0.00,WUHU216HW,2013-08-01 10:00:00,
2013-08-01 06:01:00,65.4,62.7,30.04,WNW,293,0.0,0.0,91,0.00,,,0.00,WUHU216HW,2013-08-01 10:01:00,
2013-08-01 06:02:00,65.4,62.7,30.04,WNW,293,0.0,0.0,91,0.00,,,0.00,WUHU216HW,2013-08-01 10:02:00,
2013-08-01 06:03:00,65.4,62.7,30.04,WNW,293,0.0,0.0,91,0.00,,,0.00,WUHU216HW,2013-08-01 10:03:00,
2013-08-01 06:04:00,65.4,62.7,30.04,WNW,293,0.0,0.0,91,0.00,,,0.00,WUHU216HW,2013-08-01 10:04:00,
2013-08-01 06:05:00,65.4,62.7,30.04,WNW,293,0.0,0.0,91,0.00,,,0.00,WUHU216HW,2013-08-01 10:05:00,
2013-08-01 06:06:00,65.4,62.7,30.04,WNW,293,0.0,0.0,91,0.00,,,0.00,WUHU216HW,2013-08-01 10:06:00,
2013-08-01 06:07:00,65.4,62.7,30.04,WNW,293,0.0,0.0,91,0.00,,,0.00,WUHU216HW,2013-08-01 10:07:00,
2013-08-01 06:08:00,65.4,62.7,30.04,WNW,293,0.0,0.0,91,0.00,,,0.00,WUHU216HW,2013-08-01 10:08:00,
2013-08-01 06:22:00,65.3,62.6,30.04,WNW,293,0.0,0.0,91,0.00,,,0.00,WUHU216HW,2013-08-01 10:22:00,
2013-08-01 06:23:00,65.3,62.6,30.04,WNW,293,0.0,0.0,91,0.00,,,0.00,WUHU216HW,2013-08-01 10:23:00,
2013-08-01 06:24:00,65.3,62.6,30.04,WNW,293,0.0,0.0,91,0.00,,,0.00,WUHU216HW,2013-08-01 10:24:00,
2013-08-01 06:25:00,65.3,62.6,30.04,WNW,293,0.0,0.0,91,0.00,,,0.00,WUHU216HW,2013-08-01 10:25:00,
2013-08-01 06:26:00,65.3,62.6,30.04,WNW,293,0.0,0.0,91,0.00,,,0.00,WUHU216HW,2013-08-01 10:26:00,
2013-08-01 06:27:00,65.3,62.6,30.04,WNW,293,0.0,0.0,91,0.00,,,0.00,WUHU216HW,2013-08-01 10:27:00,
2013-08-01 06:28:00,65.3,62.6,30.04,WNW,293,0.0,0.0,91,0.00,,,0.00,WUHU216HW,2013-08-01 10:28:00,
2013-08-01 06:29:00,65.3,62.6,30.04,WNW,293,0.0,0.0,91,0.00,,,0.00,WUHU216HW,2013-08-01 10:29:00,
2013-08-01 06:30:00,65.3,62.6,30.04,WNW,293,0.0,0.0,91,0.00,,,0.00,WUHU216HW,2013-08-01 10:30:00,
2013-08-01 06:31:00,65.3,62.6,30.04,WNW,293,0.0,0.0,91,0.00,,,0.00,WUHU216HW,2013-08-01 10:31:00,
2013-08-01 06:32:00,65.3,62.6,30.04,WNW,293,0.0,0.0,91,0.00,,,0.00,WUHU216HW,2013-08-01 10:32:00,
2013-08-01 06:33:00,65.3,62.6,30.04,WNW,293,0.0,0.0,91,0.00,,,0.00,WUHU216HW,2013-08-01 10:33:00,
2013-08-01 06:34:00,65.1,62.4,30.04,WNW,293,0.0,0.0,91,0.00,,,0.00,WUHU216HW,2013-08-01 10:34:00,
2013-08-01 06:35:00,65.1,62.4,30.04,WNW,293,0.0,0.0,91,0.00,,,0.00,WUHU216HW,2013-08-01 10:35:00,
2013-08-01 06:36:00,65.1,62.4,30.04,WNW,293,0.0,0.0,91,0.00,,,0.00,WUHU216HW,2013-08-01 10:36:00,
2013-08-01 06:37:00,65.1,62.4,30.04,WNW,293,0.0,0.0,91,0.00,,,0.00,WUHU216HW,2013-08-01 10:37:00,
2013-08-01 06:38:00,65.1,62.4,30.04,WNW,293,0.0,0.0,91,0.00,,,0.00,WUHU216HW,2013-08-01 10:38:00,
2013-08-01 06:39:00,65.1,62.4,30.04,WNW,293,0.0,0.0,91,0.00,,,0.00,WUHU216HW,2013-08-01 10:39:00,
2013-08-01 06:40:00,65.1,62.4,30.04,WNW,293,0.0,0.0,91,0.00,,,0.00,WUHU216HW,2013-08-01 10:40:00,
2013-08-01 06:41:00,65.1,62.4,30.04,WNW,293,0.0,0.0,91,0.00,,,0.00,WUHU216HW,2013-08-01 10:41:00,
2013-08-01 06:42:00,65.1,62.4,30.04,WNW,293,0.0,0.0,91,0.00,,,0.00,WUHU216HW,2013-08-01 10:42:00,
2013-08-01 06:43:00,65.1,62.4,30.04,WNW,293,0.0,0.0,91,0.00,,,0.00,WUHU216HW,2013-08-01 10:43:00,
2013-08-01 06:44:00,65.1,62.4,30.04,WNW,293,0.0,0.0,91,0.00,,,0.00,WUHU216HW,2013-08-01 10:44:00,
2013-08-01 06:45:00,65.1,62.4,30.04,WNW,293,0.0,0.0,91,0.00,,,0.00,WUHU216HW,2013-08-01 10:45:00,
2013-08-01 06:46:00,65.1,62.4,30.04,WNW,293,0.0,0.0,91,0.00,,,0.00,WUHU216HW,2013-08-01 10:46:00,
2013-08-01 06:47:00,65.1,62.4,30.05,WNW,293,0.0,0.0,91,0.00,,,0.00,WUHU216HW,2013-08-01 10:47:00,
2013-08-01 06:48:00,65.1,62.4,30.05,WNW,293,0.0,0.0,91,0.00,,,0.00,WUHU216HW,2013-08-01 10:48:00,
2013-08-01 06:49:00,65.3,62.6,30.05,WNW,293,0.0,0.0,91,0.00,,,0.00,WUHU216HW,2013-08-01 10:49:00,
2013-08-01 06:50:00,65.3,62.6,30.05,WNW,293,0.0,0.0,91,0.00,,,0.00,WUHU216HW,2013-08-01 10:50:00,
2013-08-01 06:51:00,65.1,62.4,30.05,WNW,293,0.0,0.0,91,0.00,,,0.00,WUHU216HW,2013-08-01 10:51:00,
2013-08-01 06:52:00,65.1,62.4,30.05,WNW,293,0.0,0.0,91,0.00,,,0.00,WUHU216HW,2013-08-01 10:52:00,
2013-08-01 06:53:00,65.1,62.4,30.05,WNW,293,0.0,0.0,91,0.00,,,0.00,WUHU216HW,2013-08-01 10:53:00,
2013-08-01 06:54:00,65.1,62.4,30.05,WNW,293,0.0,0.0,91,0.00,,,0.00,WUHU216HW,2013-08-01 10:54:00,
2013-08-01 06:55:00,65.3,62.6,30.05,WSW,248,0.0,0.0,91,0.00,,,0.00,WUHU216HW,2013-08-01 10:55:00,
2013-08-01 06:56:00,65.3,62.6,30.05,WSW,248,0.0,0.0,91,0.00,,,0.00,WUHU216HW,2013-08-01 10:56:00,
2013-08-01 06:57:00,65.3,62.6,30.05,WSW,248,0.0,0.0,91,0.00,,,0.00,WUHU216HW,2013-08-01 10:57:00,
2013-08-01 06:58:00,65.1,62.4,30.05,WSW,248,0.0,0.0,91,0.00,,,0.00,WUHU216HW,2013-08-01 10:58:00,
2013-08-01 06:59:00,65.1,62.4,30.05,WSW,248,0.0,0.0,91,0.00,,,0.00,WUHU216HW,2013-08-01 10:59:00,
2013-08-01 07:00:00,65.3,62.6,30.05,WSW,248,0.0,0.0,91,0.00,,,0.00,WUHU216HW,2013-08-01 11:00:00,
2013-08-01 07:01:00,65.4,62.7,30.04,WNW,293,0.0,0.0,91,0.00,,,0.00,WUHU216HW,2013-08-01 11:01:00,
2013-08-01 07:02:00,65.1,62.4,30.05,WSW,248,0.0,0.0,91,0.00,,,0.00,WUHU216HW,2013-08-01 11:02:00,
2013-08-01 07:03:00,65.1,62.4,30.05,WSW,248,0.0,0.0,91,0.00,,,0.00,WUHU216HW,2013-08-01 11:03:00,
2013-08-01 07:04:00,65.3,62.6,30.05,WSW,248,0.0,0.0,91,0.00,,,0.00,WUHU216HW,2013-08-01 11:04:00,
2013-08-01 07:05:00,65.3,62.6,30.05,WSW,248,0.0,0.0,91,0.00,,,0.00,WUHU216HW,2013-08-01 11:05:00,
2013-08-01 07:06:00,65.1,62.4,30.05,WSW,248,0.0,0.0,91,0.00,,,0.00,WUHU216HW,2013-08-01 11:06:00,
2013-08-01 07:07:00,65.4,62.7,30.04,WNW,293,0.0,0.0,91,0.00,,,0.00,WUHU216HW,2013-08-01 11:07:00,
2013-08-01 07:08:00,65.1,62.4,30.05,WSW,248,0.0,0.0,91,0.00,,,0.00,WUHU216HW,2013-08-01 11:08:00,
2013-08-01 07:09:00,65.1,62.4,30.05,WSW,248,0.0,0.0,91,0.00,,,0.00,WUHU216HW,2013-08-01 11:09:00,
2013-08-01 07:10:00,65.1,62.4,30.05,WSW,248,0.0,0.0,91,0.00,,,0.00,WUHU216HW,2013-08-01 11:10:00,
2013-08-01 07:11:00,65.1,62.4,30.05,WSW,248,0.0,0.0,91,0.00,,,0.00,WUHU216HW,2013-08-01 11:11:00,
2013-08-01 07:12:00,65.4,62.7,30.04,WNW,293,0.0,0.0,91,0.00,,,0.00,WUHU216HW,2013-08-01 11:12:00,
2013-08-01 07:13:00,64.9,62.2,30.05,WSW,248,0.0,0.0,91,0.00,,,0.00,WUHU216HW,2013-08-01 11:13:00,
2013-08-01 07:14:00,64.9,62.2,30.05,WSW,248,0.0,0.0,91,0.00,,,0.00,WUHU216HW,2013-08-01 11:14:00,
2013-08-01 07:15:00,65.1,62.4,30.05,WSW,248,0.0,0.0,91,0.00,,,0.00,WUHU216HW,2013-08-01 11:15:00,
2013-08-01 07:16:00,65.1,62.4,30.05,WSW,248,0.0,0.0,91,0.00,,,0.00,WUHU216HW,2013-08-01 11:16:00,
2013-08-01 07:17:00,65.4,62.7,30.04,WNW,293,0.0,0.0,91,0.00,,,0.00,WUHU216HW,2013-08-01 11:17:00,
2013-08-01 07:18:00,65.1,62.4,30.06,WSW,248,0.0,0.0,91,0.00,,,0.00,WUHU216HW,2013-08-01 11:18:00,
2013-08-01 07:19:00,65.1,62.4,30.05,WSW,248,0.0,0.0,91,0.00,,,0.00,WUHU216HW,2013-08-01 11:19:00,
2013-08-01 07:20:00,65.1,62.4,30.06,WSW,248,0.0,0.0,91,0.00,,,0.00,WUHU216HW,2013-08-01 11:20:00,
2013-08-01 07:21:00,64.9,62.2,30.06,WSW,248,0.0,0.0,91,0.00,,,0.00,WUHU216HW,2013-08-01 11:21:00,
2013-08-01 07:22:00,65.3,62.6,30.03,WNW,293,0.0,0.0,91,0.00,,,0.00,WUHU216HW,2013-08-01 11:22:00,
2013-08-01 07:23:00,64.9,62.2,30.06,WSW,248,0.0,0.0,91,0.00,,,0.00,WUHU216HW,2013-08-01 11:23:00,
2013-08-01 07:24:00,64.9,62.2,30.06,WSW,248,0.0,0.0,91,0.00,,,0.00,WUHU216HW,2013-08-01 11:24:00,
2013-08-01 07:25:00,64.9,62.2,30.06,WSW,248,0.0,0.0,91,0.00,,,0.00,WUHU216HW,2013-08-01 11:25:00,
2013-08-01 07:26:00,65.1,62.4,30.06,WSW,248,0.0,0.0,91,0.00,,,0.00,WUHU216HW,2013-08-01 11:26:00,
2013-08-01 07:27:00,65.3,62.6,30.04,WNW,293,0.0,0.0,91,0.00,,,0.00,WUHU216HW,2013-08-01 11:27:00,
2013-08-01 07:28:00,65.1,62.4,30.06,WSW,248,0.0,0.0,91,0.00,,,0.00,WUHU216HW,2013-08-01 11:28:00,
2013-08-01 07:29:00,65.1,62.4,30.06,WSW,248,0.0,0.0,91,0.00,,,0.00,WUHU216HW,2013-08-01 11:29:00,
2013-08-01 07:30:00,65.1,62.4,30.06,WSW,248,0.0,0.0,91,0.00,,,0.00,WUHU216HW,2013-08-01 11:30:00,
2013-08-01 07:31:00,65.1,62.4,30.06,WSW,248,0.0,0.0,91,0.00,,,0.00,WUHU216HW,2013-08-01 11:31:00,
2013-08-01 07:32:00,64.9,62.2,30.06,WSW,248,0.0,0.0,91,0.00,,,0.00,WUHU216HW,2013-08-01 11:32:00,
2013-08-01 07:33:00,64.9,62.2,30.06,WSW,248,0.0,0.0,91,0.00,,,0.00,WUHU216HW,2013-08-01 11:33:00,
2013-08-01 07:34:00,64.9,62.2,30.06,WSW,248,0.0,0.0,91,0.00,,,0.00,WUHU216HW,2013-08-01 11:34:00,
2013-08-01 07:35:00,64.9,62.2,30.06,WSW,248,0.0,0.0,91,0.00,,,0.00,WUHU216HW,2013-08-01 11:35:00,
2013-08-01 07:36:00,64.9,62.2,30.06,WSW,248,0.0,0.0,91,0.00,,,0.00,WUHU216HW,2013-08-01 11:36:00,
2013-08-01 07:37:00,64.9,62.2,30.06,WSW,248,0.0,0.0,91,0.00,,,0.00,WUHU216HW,2013-08-01 11:37:00,
2013-08-01 07:38:00,64.9,62.2,30.06,WSW,248,0.0,0.0,91,0.00,,,0.00,WUHU216HW,2013-08-01 11:38:00,
2013-08-01 07:39:00,64.9,62.2,30.06,WSW,248,0.0,0.0,91,0.00,,,0.00,WUHU216HW,2013-08-01 11:39:00,
2013-08-01 07:40:00,64.9,62.2,30.06,WSW,248,0.0,0.0,91,0.00,,,0.00,WUHU216HW,2013-08-01 11:40:00,
2013-08-01 07:41:00,64.9,62.2,30.06,WSW,248,0.0,0.0,91,0.00,,,0.00,WUHU216HW,2013-08-01 11:41:00,
2013-08-01 07:42:00,64.9,62.2,30.06,WSW,248,0.0,0.0,91,0.00,,,0.00,WUHU216HW,2013-08-01 11:42:00,
2013-08-01 07:43:00,65.1,62.4,30.06,WSW,248,0.0,0.0,91,0.00,,,0.00,WUHU216HW,2013-08-01 11:43:00,
2013-08-01 07:44:00,65.1,62.4,30.06,WSW,248,0.0,0.0,91,0.00,,,0.00,WUHU216HW,2013-08-01 11:44:00,
2013-08-01 07:45:00,65.1,62.4,30.06,WSW,248,0.0,0.0,91,0.00,,,0.00,WUHU216HW,2013-08-01 11:45:00,
2013-08-01 07:46:00,65.1,62.4,30.06,WSW,248,0.0,0.0,91,0.00,,,0.00,WUHU216HW,2013-08-01 11:46:00,
2013-08-01 07:47:00,65.1,62.4,30.06,WSW,248,0.8,0.8,91,0.00,,,0.00,WUHU216HW,2013-08-01 11:47:00,
2013-08-01 07:48:00,65.1,62.4,30.06,WSW,248,0.8,0.8,91,0.00,,,0.00,WUHU216HW,2013-08-01 11:48:00,
2013-08-01 07:49:00,65.1,62.4,30.06,WSW,248,0.0,0.8,91,0.00,,,0.00,WUHU216HW,2013-08-01 11:49:00,
2013-08-01 07:50:00,65.1,62.4,30.06,WSW,248,0.0,0.8,91,0.00,,,0.00,WUHU216HW,2013-08-01 11:50:00,
2013-08-01 07:51:00,65.3,62.6,30.06,WSW,248,0.0,0.8,91,0.00,,,0.00,WUHU216HW,2013-08-01 11:51:00,
2013-08-01 07:52:00,65.3,62.6,30.06,WSW,248,0.0,0.8,91,0.00,,,0.00,WUHU216HW,2013-08-01 11:52:00,
2013-08-01 07:53:00,65.3,62.6,30.06,WSW,248,0.0,0.8,91,0.00,,,0.00,WUHU216HW,2013-08-01 11:53:00,
2013-08-01 07:54:00,65.4,62.7,30.06,WSW,248,0.0,0.8,91,0.00,,,0.00,WUHU216HW,2013-08-01 11:54:00,
2013-08-01 07:55:00,65.4,62.7,30.06,WSW,248,0.0,0.8,91,0.00,,,0.00,WUHU216HW,2013-08-01 11:55:00,
2013-08-01 07:56:00,65.4,62.7,30.06,WSW,248,0.0,0.8,91,0.00,,,0.00,WUHU216HW,2013-08-01 11:56:00,
2013-08-01 07:57:00,65.4,62.7,30.06,WSW,248,0.0,0.8,91,0.00,,,0.00,WUHU216HW,2013-08-01 11:57:00,
2013-08-01 07:58:00,65.6,62.9,30.06,WSW,248,0.0,0.0,91,0.00,,,0.00,WUHU216HW,2013-08-01 11:58:00,
2013-08-01 07:59:00,65.6,62.9,30.07,WSW,248,0.0,0.0,91,0.00,,,0.00,WUHU216HW,2013-08-01 11:59:00,
2013-08-01 08:00:00,65.8,63.1,30.06,WSW,248,0.0,0.0,91,0.00,,,0.00,WUHU216HW,2013-08-01 12:00:00,
2013-08-01 08:01:00,65.8,63.1,30.06,WSW,248,0.0,0.0,91,0.00,,,0.00,WUHU216HW,2013-08-01 12:01:00,
2013-08-01 08:02:00,65.8,63.1,30.07,WSW,248,0.0,0.0,91,0.00,,,0.00,WUHU216HW,2013-08-01 12:02:00,
2013-08-01 08:03:00,65.8,63.1,30.07,WSW,248,0.0,0.0,91,0.00,,,0.00,WUHU216HW,2013-08-01 12:03:00,
2013-08-01 08:04:00,66.0,63.2,30.07,WSW,248,0.6,0.6,91,0.00,,,0.00,WUHU216HW,2013-08-01 12:04:00,
2013-08-01 08:05:00,66.0,63.2,30.07,WSW,248,0.6,0.6,91,0.00,,,0.00,WUHU216HW,2013-08-01 12:05:00,
2013-08-01 08:06:00,66.0,63.2,30.07,SW,225,0.0,0.6,91,0.00,,,0.00,WUHU216HW,2013-08-01 12:06:00,
2013-08-01 08:07:00,66.0,63.2,30.07,SW,225,0.0,0.6,91,0.00,,,0.00,WUHU216HW,2013-08-01 12:07:00,
2013-08-01 08:08:00,66.3,63.6,30.06,SW,225,0.0,0.6,91,0.00,,,0.00,WUHU216HW,2013-08-01 12:08:00,
2013-08-01 08:09:00,66.3,63.6,30.06,SW,225,0.0,0.6,91,0.00,,,0.00,WUHU216HW,2013-08-01 12:09:00,
2013-08-01 08:10:00,66.3,63.6,30.06,SW,225,0.0,0.6,91,0.00,,,0.00,WUHU216HW,2013-08-01 12:10:00,
2013-08-01 08:11:00,66.3,63.6,30.07,SW,225,1.3,1.3,91,0.00,,,0.00,WUHU216HW,2013-08-01 12:11:00,
2013-08-01 08:12:00,66.3,63.6,30.07,SW,225,1.3,1.3,91,0.00,,,0.00,WUHU216HW,2013-08-01 12:12:00,
2013-08-01 08:13:00,66.5,63.8,30.07,WNW,293,0.0,1.3,91,0.00,,,0.00,WUHU216HW,2013-08-01 12:13:00,
2013-08-01 08:14:00,66.5,63.8,30.07,WNW,293,0.0,1.3,91,0.00,,,0.00,WUHU216HW,2013-08-01 12:14:00,
2013-08-01 08:15:00,66.7,63.9,30.07,NW,315,0.0,1.3,91,0.00,,,0.00,WUHU216HW,2013-08-01 12:15:00,
2013-08-01 08:16:00,66.7,63.9,30.07,NW,315,0.0,1.3,91,0.00,,,0.00,WUHU216HW,2013-08-01 12:16:00,
2013-08-01 08:17:00,66.7,63.9,30.07,West,270,0.0,1.3,91,0.00,,,0.00,WUHU216HW,2013-08-01 12:17:00,
2013-08-01 08:18:00,66.7,63.9,30.07,West,270,0.0,1.3,91,0.00,,,0.00,WUHU216HW,2013-08-01 12:18:00,
2013-08-01 08:19:00,66.9,64.1,30.07,West,270,0.0,1.3,91,0.00,,,0.00,WUHU216HW,2013-08-01 12:19:00,
2013-08-01 08:20:00,66.9,64.1,30.07,West,270,0.0,1.3,91,0.00,,,0.00,WUHU216HW,2013-08-01 12:20:00,
2013-08-01 08:21:00,66.9,64.1,30.07,West,270,0.0,1.3,91,0.00,,,0.00,WUHU216HW,2013-08-01 12:21:00,
2013-08-01 08:22:00,66.9,64.1,30.07,West,270,0.0,0.0,91,0.00,,,0.00,WUHU216HW,2013-08-01 12:22:00,
2013-08-01 08:23:00,67.2,64.5,30.07,NW,315,0.8,0.8,91,0.00,,,0.00,WUHU216HW,2013-08-01 12:23:00,
2013-08-01 08:24:00,67.2,64.5,30.07,NW,315,0.8,0.8,91,0.00,,,0.00,WUHU216HW,2013-08-01 12:24:00,
2013-08-01 08:25:00,67.2,64.5,30.07,NW,315,0.8,0.8,91,0.00,,,0.00,WUHU216HW,2013-08-01 12:25:00,
2013-08-01 08:26:00,67.2,64.5,30.07,West,270,0.0,0.8,91,0.00,,,0.00,WUHU216HW,2013-08-01 12:26:00,
2013-08-01 08:27:00,67.2,64.5,30.07,West,270,0.0,0.8,91,0.00,,,0.00,WUHU216HW,2013-08-01 12:27:00,
2013-08-01 08:28:00,67.2,64.5,30.07,NE,45,0.8,0.8,91,0.00,,,0.00,WUHU216HW,2013-08-01 12:28:00,
2013-08-01 08:29:00,67.2,64.5,30.07,NE,45,0.8,0.8,91,0.00,,,0.00,WUHU216HW,2013-08-01 12:29:00,
2013-08-01 08:30:00,67.4,64.7,30.07,SSW,203,1.7,1.7,91,0.00,,,0.00,WUHU216HW,2013-08-01 12:30:00,
2013-08-01 08:31:00,67.4,64.7,30.07,SSW,203,1.7,1.7,91,0.00,,,0.00,WUHU216HW,2013-08-01 12:31:00,
2013-08-01 08:32:00,67.6,64.8,30.07,West,270,1.1,1.7,91,0.00,,,0.00,WUHU216HW,2013-08-01 12:32:00,
2013-08-01 08:33:00,67.6,64.8,30.07,West,270,1.1,1.7,91,0.00,,,0.00,WUHU216HW,2013-08-01 12:33:00,
2013-08-01 08:34:00,67.6,64.5,30.07,West,270,0.0,1.7,90,0.00,,,0.00,WUHU216HW,2013-08-01 12:34:00,
2013-08-01 08:35:00,67.6,64.5,30.07,West,270,0.0,1.7,90,0.00,,,0.00,WUHU216HW,2013-08-01 12:35:00,
2013-08-01 08:36:00,67.6,64.5,30.07,SW,225,0.0,1.7,90,0.00,,,0.00,WUHU216HW,2013-08-01 12:36:00,
2013-08-01 08:37:00,67.6,64.5,30.07,SW,225,0.0,1.7,90,0.00,,,0.00,WUHU216HW,2013-08-01 12:37:00,
2013-08-01 08:38:00,67.6,64.5,30.07,West,270,0.0,1.7,90,0.00,,,0.00,WUHU216HW,2013-08-01 12:38:00,
2013-08-01 08:39:00,67.6,64.5,30.07,West,270,0.0,1.7,90,0.00,,,0.00,WUHU216HW,2013-08-01 12:39:00,
2013-08-01 08:40:00,67.6,64.5,30.07,West,270,0.0,1.7,90,0.00,,,0.00,WUHU216HW,2013-08-01 12:40:00,
2013-08-01 08:41:00,67.8,64.7,30.07,West,270,0.0,1.1,90,0.00,,,0.00,WUHU216HW,2013-08-01 12:41:00,
2013-08-01 08:42:00,67.8,64.7,30.07,West,270,0.0,1.1,90,0.00,,,0.00,WUHU216HW,2013-08-01 12:42:00,
2013-08-01 08:43:00,67.8,64.7,30.07,NW,315,0.0,0.0,90,0.00,,,0.00,WUHU216HW,2013-08-01 12:43:00,
2013-08-01 08:44:00,67.8,64.7,30.07,NW,315,0.0,0.0,90,0.00,,,0.00,WUHU216HW,2013-08-01 12:44:00,
2013-08-01 08:45:00,67.8,64.7,30.07,SW,225,0.6,0.6,90,0.00,,,0.00,WUHU216HW,2013-08-01 12:45:00,
2013-08-01 08:46:00,67.8,64.7,30.07,SW,225,0.6,0.6,90,0.00,,,0.00,WUHU216HW,2013-08-01 12:46:00,
2013-08-01 08:47:00,68.1,65.1,30.07,West,270,0.0,0.6,90,0.00,,,0.00,WUHU216HW,2013-08-01 12:47:00,
2013-08-01 08:48:00,68.1,65.1,30.07,West,270,0.0,0.6,90,0.00,,,0.00,WUHU216HW,2013-08-01 12:48:00,
2013-08-01 08:49:00,68.1,65.1,30.07,WNW,293,0.0,0.6,90,0.00,,,0.00,WUHU216HW,2013-08-01 12:49:00,
2013-08-01 08:50:00,68.1,65.1,30.07,WNW,293,0.0,0.6,90,0.00,,,0.00,WUHU216HW,2013-08-01 12:50:00,
2013-08-01 08:51:00,68.3,65.3,30.07,SW,225,0.0,0.6,90,0.00,,,0.00,WUHU216HW,2013-08-01 12:51:00,
2013-08-01 08:52:00,68.3,65.3,30.07,SW,225,0.0,0.6,90,0.00,,,0.00,WUHU216HW,2013-08-01 12:52:00,
2013-08-01 08:53:00,68.5,65.3,30.07,SSW,203,0.0,0.6,89,0.00,,,0.00,WUHU216HW,2013-08-01 12:53:00,
2013-08-01 08:54:00,68.5,65.1,30.07,SSW,203,0.0,0.6,89,0.00,,,0.00,WUHU216HW,2013-08-01 12:54:00,
2013-08-01 08:55:00,68.5,65.1,30.07,WNW,293,1.5,1.5,89,0.00,,,0.00,WUHU216HW,2013-08-01 12:55:00,
2013-08-01 08:56:00,68.5,65.1,30.07,WNW,293,1.5,1.5,89,0.00,,,0.00,WUHU216HW,2013-08-01 12:56:00,
2013-08-01 08:57:00,68.5,65.1,30.07,WNW,293,1.5,1.5,89,0.00,,,0.00,WUHU216HW,2013-08-01 12:57:00,
2013-08-01 08:58:00,68.7,65.3,30.07,NNW,338,0.0,1.5,89,0.00,,,0.00,WUHU216HW,2013-08-01 12:58:00,
2013-08-01 08:59:00,68.7,65.3,30.07,NNW,338,0.0,1.5,89,0.00,,,0.00,WUHU216HW,2013-08-01 12:59:00,
2013-08-01 09:00:00,68.7,65.3,30.07,North,0,0.0,1.5,89,0.00,,,0.00,WUHU216HW,2013-08-01 13:00:00,
2013-08-01 09:01:00,68.7,65.3,30.07,North,0,0.0,1.5,89,0.00,,,0.00,WUHU216HW,2013-08-01 13:01:00,
2013-08-01 09:02:00,68.7,65.3,30.07,WNW,293,0.6,1.5,89,0.00,,,0.00,WUHU216HW,2013-08-01 13:02:00,
2013-08-01 09:03:00,68.7,65.3,30.07,WNW,293,0.6,1.5,89,0.00,,,0.00,WUHU216HW,2013-08-01 13:03:00,
2013-08-01 09:04:00,68.9,65.4,30.07,SW,225,0.0,1.5,89,0.00,,,0.00,WUHU216HW,2013-08-01 13:04:00,
2013-08-01 09:05:00,68.9,65.4,30.07,SW,225,0.0,1.5,89,0.00,,,0.00,WUHU216HW,2013-08-01 13:05:00,
2013-08-01 09:06:00,69.0,65.6,30.07,WNW,293,0.8,1.5,89,0.00,,,0.00,WUHU216HW,2013-08-01 13:06:00,
2013-08-01 09:07:00,69.0,65.6,30.07,WNW,293,0.8,0.8,89,0.00,,,0.00,WUHU216HW,2013-08-01 13:07:00,
2013-08-01 09:08:00,69.0,65.6,30.06,NNW,338,0.8,0.8,89,0.00,,,0.00,WUHU216HW,2013-08-01 13:08:00,
2013-08-01 09:09:00,69.0,65.6,30.06,NNW,338,0.8,0.8,89,0.00,,,0.00,WUHU216HW,2013-08-01 13:09:00,
2013-08-01 09:10:00,69.0,65.6,30.07,WSW,248,1.5,1.5,88,0.00,,,0.00,WUHU216HW,2013-08-01 13:10:00,
2013-08-01 09:11:00,69.0,65.3,30.06,WSW,248,1.5,1.5,88,0.00,,,0.00,WUHU216HW,2013-08-01 13:11:00,
2013-08-01 09:12:00,69.0,65.3,30.06,WSW,248,1.5,1.5,88,0.00,,,0.00,WUHU216HW,2013-08-01 13:12:00,
2013-08-01 09:13:00,69.0,65.3,30.06,SW,225,0.0,1.5,88,0.00,,,0.00,WUHU216HW,2013-08-01 13:13:00,
2013-08-01 09:14:00,69.0,65.3,30.06,SW,225,0.0,1.5,88,0.00,,,0.00,WUHU216HW,2013-08-01 13:14:00,
2013-08-01 09:15:00,69.0,65.3,30.06,West,270,0.6,1.5,88,0.00,,,0.00,WUHU216HW,2013-08-01 13:15:00,
2013-08-01 09:16:00,69.0,65.3,30.06,West,270,0.6,1.5,88,0.00,,,0.00,WUHU216HW,2013-08-01 13:16:00,
2013-08-01 09:17:00,69.2,65.5,30.06,WNW,293,4.2,4.2,88,0.00,,,0.00,WUHU216HW,2013-08-01 13:17:00,
2013-08-01 09:18:00,69.2,65.5,30.06,WNW,293,4.2,4.2,88,0.00,,,0.00,WUHU216HW,2013-08-01 13:18:00,
2013-08-01 09:19:00,69.2,65.1,30.06,SSW,203,3.1,4.2,87,0.00,,,0.00,WUHU216HW,2013-08-01 13:19:00,
2013-08-01 09:20:00,69.2,65.1,30.06,SSW,203,3.1,4.2,87,0.00,,,0.00,WUHU216HW,2013-08-01 13:20:00,
2013-08-01 09:21:00,69.4,65.3,30.06,West,270,1.1,4.2,87,0.00,,,0.00,WUHU216HW,2013-08-01 13:21:00,
2013-08-01 09:22:00,69.4,65.3,30.06,West,270,1.1,4.2,87,0.00,,,0.00,WUHU216HW,2013-08-01 13:22:00,
2013-08-01 09:23:00,69.4,65.3,30.06,SSW,203,2.9,4.2,87,0.00,,,0.00,WUHU216HW,2013-08-01 13:23:00,
2013-08-01 09:24:00,69.4,65.3,30.06,SSW,203,2.9,4.2,87,0.00,,,0.00,WUHU216HW,2013-08-01 13:24:00,
2013-08-01 09:25:00,69.4,65.3,30.06,West,270,2.4,4.2,86,0.00,,,0.00,WUHU216HW,2013-08-01 13:25:00,
2013-08-01 09:26:00,69.4,65.0,30.06,West,270,2.4,4.2,86,0.00,,,0.00,WUHU216HW,2013-08-01 13:26:00,
2013-08-01 09:27:00,69.4,65.0,30.06,West,270,2.4,4.2,86,0.00,,,0.00,WUHU216HW,2013-08-01 13:27:00,
2013-08-01 09:28:00,69.4,65.0,30.06,NW,315,4.6,4.6,86,0.00,,,0.00,WUHU216HW,2013-08-01 13:28:00,
2013-08-01 09:29:00,69.4,65.0,30.06,NW,315,4.6,4.6,86,0.00,,,0.00,WUHU216HW,2013-08-01 13:29:00,
2013-08-01 09:30:00,69.6,65.1,30.06,SW,225,4.6,4.6,86,0.00,,,0.00,WUHU216HW,2013-08-01 13:30:00,
2013-08-01 09:31:00,69.6,65.1,30.06,SW,225,4.6,4.6,86,0.00,,,0.00,WUHU216HW,2013-08-01 13:31:00,
2013-08-01 09:32:00,69.6,65.1,30.06,WSW,248,0.8,4.6,86,0.00,,,0.00,WUHU216HW,2013-08-01 13:32:00,
2013-08-01 09:33:00,69.6,65.1,30.06,WSW,248,0.8,4.6,86,0.00,,,0.00,WUHU216HW,2013-08-01 13:33:00,
2013-08-01 09:34:00,69.6,65.1,30.06,SW,225,1.3,4.6,86,0.00,,,0.00,WUHU216HW,2013-08-01 13:34:00,
2013-08-01 09:35:00,69.6,65.1,30.06,SW,225,1.3,4.6,86,0.00,,,0.00,WUHU216HW,2013-08-01 13:35:00,
2013-08-01 09:36:00,69.6,65.1,30.06,SW,225,3.8,4.6,86,0.00,,,0.00,WUHU216HW,2013-08-01 13:36:00,
2013-08-01 09:37:00,69.6,65.1,30.07,SW,225,3.8,4.6,86,0.00,,,0.00,WUHU216HW,2013-08-01 13:37:00,
2013-08-01 09:38:00,69.6,65.1,30.07,WNW,293,4.4,4.6,86,0.00,,,0.00,WUHU216HW,2013-08-01 13:38:00,
2013-08-01 09:39:00,69.6,65.1,30.06,WNW,293,4.4,4.6,86,0.00,,,0.00,WUHU216HW,2013-08-01 13:39:00,
2013-08-01 09:40:00,69.6,65.1,30.06,NW,315,0.0,4.6,86,0.00,,,0.00,WUHU216HW,2013-08-01 13:40:00,
2013-08-01 09:41:00,69.6,65.1,30.06,NW,315,0.0,4.4,86,0.00,,,0.00,WUHU216HW,2013-08-01 13:41:00,
2013-08-01 09:42:00,69.6,65.1,30.06,NW,315,0.0,4.4,86,0.00,,,0.00,WUHU216HW,2013-08-01 13:42:00,
2013-08-01 09:43:00,69.6,65.1,30.06,WSW,248,1.7,4.4,86,0.00,,,0.00,WUHU216HW,2013-08-01 13:43:00,
2013-08-01 09:44:00,69.6,65.1,30.06,WSW,248,1.7,4.4,86,0.00,,,0.00,WUHU216HW,2013-08-01 13:44:00,
2013-08-01 09:45:00,69.8,65.3,30.06,NNW,338,0.0,4.4,86,0.00,,,0.00,WUHU216HW,2013-08-01 13:45:00,
2013-08-01 09:46:00,69.8,65.3,30.06,NNW,338,0.0,4.4,86,0.00,,,0.00,WUHU216HW,2013-08-01 13:46:00,
2013-08-01 09:47:00,69.9,65.5,30.06,South,180,2.0,4.4,86,0.00,,,0.00,WUHU216HW,2013-08-01 13:47:00,
2013-08-01 09:48:00,69.9,65.5,30.06,South,180,2.0,4.4,86,0.00,,,0.00,WUHU216HW,2013-08-01 13:48:00,
2013-08-01 09:49:00,69.9,65.5,30.06,SSW,203,0.0,2.0,86,0.00,,,0.00,WUHU216HW,2013-08-01 13:49:00,
2013-08-01 09:50:00,69.9,65.5,30.06,SSW,203,0.0,2.0,86,0.00,,,0.00,WUHU216HW,2013-08-01 13:50:00,
2013-08-01 09:51:00,70.1,65.3,30.06,SSW,203,2.4,2.4,85,0.00,,,0.00,WUHU216HW,2013-08-01 13:51:00,
2013-08-01 09:52:00,70.1,65.3,30.06,SSW,203,2.4,2.4,85,0.00,,,0.00,WUHU216HW,2013-08-01 13:52:00,
2013-08-01 09:53:00,70.1,65.3,30.06,West,270,0.0,2.4,85,0.00,,,0.00,WUHU216HW,2013-08-01 13:53:00,
2013-08-01 09:54:00,70.1,65.3,30.06,West,270,0.0,2.4,85,0.00,,,0.00,WUHU216HW,2013-08-01 13:54:00,
2013-08-01 09:55:00,70.1,65.5,30.06,NNE,23,1.1,2.4,85,0.00,,,0.00,WUHU216HW,2013-08-01 13:55:00,
2013-08-01 09:56:00,70.1,65.5,30.06,NNE,23,1.1,2.4,85,0.00,,,0.00,WUHU216HW,2013-08-01 13:56:00,
2013-08-01 09:57:00,70.3,65.5,30.06,NNE,23,1.1,2.4,85,0.00,,,0.00,WUHU216HW,2013-08-01 13:57:00,
2013-08-01 09:58:00,70.3,65.5,30.06,North,0,0.0,2.4,85,0.00,,,0.00,WUHU216HW,2013-08-01 13:58:00,
2013-08-01 09:59:00,70.3,65.5,30.06,North,0,0.0,2.4,85,0.00,,,0.00,WUHU216HW,2013-08-01 13:59:00,
2013-08-01 10:00:00,70.5,65.7,30.07,North,0,3.1,3.1,85,0.00,,,0.00,WUHU216HW,2013-08-01 14:00:00,
2013-08-01 10:01:00,70.5,65.7,30.07,North,0,3.1,3.1,85,0.00,,,0.00,WUHU216HW,2013-08-01 14:01:00,
2013-08-01 10:02:00,70.5,65.7,30.07,West,270,2.4,3.1,85,0.00,,,0.00,WUHU216HW,2013-08-01 14:02:00,
2013-08-01 10:03:00,70.5,65.7,30.07,West,270,2.4,3.1,85,0.00,,,0.00,WUHU216HW,2013-08-01 14:03:00,
2013-08-01 10:04:00,70.7,65.9,30.07,WSW,248,0.6,3.1,85,0.00,,,0.00,WUHU216HW,2013-08-01 14:04:00,
2013-08-01 10:05:00,70.7,65.9,30.07,WSW,248,0.6,3.1,85,0.00,,,0.00,WUHU216HW,2013-08-01 14:05:00,
2013-08-01 10:06:00,70.7,65.5,30.07,WNW,293,0.0,3.1,84,0.00,,,0.00,WUHU216HW,2013-08-01 14:06:00,
2013-08-01 10:07:00,70.7,65.5,30.07,WNW,293,0.0,3.1,84,0.00,,,0.00,WUHU216HW,2013-08-01 14:07:00,
2013-08-01 10:08:00,70.8,65.7,30.07,NNW,338,0.8,3.1,84,0.00,,,0.00,WUHU216HW,2013-08-01 14:08:00,
2013-08-01 10:09:00,70.8,65.7,30.07,NNW,338,0.8,3.1,84,0.00,,,0.00,WUHU216HW,2013-08-01 14:09:00,
2013-08-01 10:10:00,70.7,65.7,30.07,ESE,113,0.0,3.1,84,0.00,,,0.00,WUHU216HW,2013-08-01 14:10:00,
2013-08-01 10:11:00,70.7,65.2,30.07,ESE,113,0.0,2.4,83,0.00,,,0.00,WUHU216HW,2013-08-01 14:11:00,
2013-08-01 10:12:00,70.7,65.2,30.07,ESE,113,0.0,2.4,83,0.00,,,0.00,WUHU216HW,2013-08-01 14:12:00,
2013-08-01 10:13:00,70.7,65.2,30.07,WNW,293,3.1,3.1,83,0.00,,,0.00,WUHU216HW,2013-08-01 14:13:00,
2013-08-01 10:14:00,70.7,65.2,30.06,WNW,293,3.1,3.1,83,0.00,,,0.00,WUHU216HW,2013-08-01 14:14:00,
2013-08-01 10:15:00,70.7,65.2,30.06,SW,225,4.0,4.0,83,0.00,,,0.00,WUHU216HW,2013-08-01 14:15:00,
2013-08-01 10:16:00,70.7,65.2,30.06,SW,225,4.0,4.0,83,0.00,,,0.00,WUHU216HW,2013-08-01 14:16:00,
2013-08-01 10:17:00,70.7,65.2,30.06,SW,225,4.0,4.0,83,0.00,,,0.00,WUHU216HW,2013-08-01 14:17:00,
2013-08-01 10:18:00,70.7,65.2,30.06,SW,225,4.0,4.0,83,0.00,,,0.00,WUHU216HW,2013-08-01 14:18:00,
2013-08-01 10:19:00,70.7,65.2,30.06,NNW,338,2.4,4.0,83,0.00,,,0.00,WUHU216HW,2013-08-01 14:19:00,
2013-08-01 10:20:00,70.7,65.2,30.06,NNW,338,2.4,4.0,83,0.00,,,0.00,WUHU216HW,2013-08-01 14:20:00,
2013-08-01 10:21:00,70.5,65.0,30.06,West,270,0.8,4.0,83,0.00,,,0.00,WUHU216HW,2013-08-01 14:21:00,
2013-08-01 10:22:00,70.5,65.0,30.06,West,270,0.8,4.0,83,0.00,,,0.00,WUHU216HW,2013-08-01 14:22:00,
2013-08-01 10:23:00,70.7,65.2,30.06,West,270,0.8,4.0,83,0.00,,,0.00,WUHU216HW,2013-08-01 14:23:00,
2013-08-01 10:24:00,70.7,65.2,30.06,SW,225,0.8,4.0,83,0.00,,,0.00,WUHU216HW,2013-08-01 14:24:00,
2013-08-01 10:25:00,70.8,65.4,30.06,SW,225,4.4,4.4,83,0.00,,,0.00,WUHU216HW,2013-08-01 14:25:00,
2013-08-01 10:26:00,70.8,65.4,30.06,SW,225,4.4,4.4,83,0.00,,,0.00,WUHU216HW,2013-08-01 14:26:00,
2013-08-01 10:27:00,70.8,65.4,30.06,SW,225,4.4,4.4,83,0.00,,,0.00,WUHU216HW,2013-08-01 14:27:00,
2013-08-01 10:28:00,70.7,64.9,30.06,SSW,203,0.0,4.4,82,0.00,,,0.00,WUHU216HW,2013-08-01 14:28:00,
2013-08-01 10:29:00,70.7,64.9,30.06,SSW,203,0.0,4.4,82,0.00,,,0.00,WUHU216HW,2013-08-01 14:29:00,
2013-08-01 10:30:00,70.8,65.0,30.06,SSW,203,0.6,4.4,82,0.00,,,0.00,WUHU216HW,2013-08-01 14:30:00,
2013-08-01 10:31:00,70.8,65.0,30.06,SSW,203,0.6,4.4,82,0.00,,,0.00,WUHU216HW,2013-08-01 14:31:00,
2013-08-01 10:32:00,70.8,65.0,30.06,West,270,0.0,4.4,82,0.00,,,0.00,WUHU216HW,2013-08-01 14:32:00,
2013-08-01 10:33:00,70.8,65.0,30.06,West,270,0.0,4.4,82,0.00,,,0.00,WUHU216HW,2013-08-01 14:33:00,
2013-08-01 10:34:00,71.2,65.4,30.06,WSW,248,0.0,4.4,82,0.00,,,0.00,WUHU216HW,2013-08-01 14:34:00,
2013-08-01 10:35:00,71.2,65.4,30.06,WSW,248,0.0,4.4,82,0.00,,,0.00,WUHU216HW,2013-08-01 14:35:00,
2013-08-01 10:36:00,71.2,65.4,30.06,WSW,248,0.0,4.4,82,0.00,,,0.00,WUHU216HW,2013-08-01 14:36:00,
2013-08-01 10:37:00,71.2,65.4,30.06,WSW,248,0.0,4.4,82,0.00,,,0.00,WUHU216HW,2013-08-01 14:37:00,
2013-08-01 10:38:00,71.7,65.6,30.06,WNW,293,2.4,2.4,81,0.00,,,0.00,WUHU216HW,2013-08-01 14:38:00,
2013-08-01 10:39:00,71.7,65.6,30.06,WNW,293,2.4,2.4,81,0.00,,,0.00,WUHU216HW,2013-08-01 14:39:00,
2013-08-01 10:40:00,71.9,65.6,30.06,SW,225,5.8,5.8,81,0.00,,,0.00,WUHU216HW,2013-08-01 14:40:00,
2013-08-01 10:41:00,71.9,65.8,30.06,SW,225,5.8,5.8,81,0.00,,,0.00,WUHU216HW,2013-08-01 14:41:00,
2013-08-01 10:42:00,71.9,65.8,30.06,SW,225,5.8,5.8,81,0.00,,,0.00,WUHU216HW,2013-08-01 14:42:00,
2013-08-01 10:43:00,71.9,65.8,30.06,SW,225,5.8,5.8,81,0.00,,,0.00,WUHU216HW,2013-08-01 14:43:00,
2013-08-01 10:44:00,71.9,65.1,30.06,WNW,293,0.0,5.8,79,0.00,,,0.00,WUHU216HW,2013-08-01 14:44:00,
2013-08-01 10:45:00,72.1,65.2,30.06,SW,225,0.0,5.8,79,0.00,,,0.00,WUHU216HW,2013-08-01 14:45:00,
2013-08-01 10:46:00,72.1,65.2,30.06,SW,225,0.0,5.8,79,0.00,,,0.00,WUHU216HW,2013-08-01 14:46:00,
2013-08-01 10:47:00,72.3,65.4,30.06,North,0,0.0,5.8,79,0.00,,,0.00,WUHU216HW,2013-08-01 14:47:00,
2013-08-01 10:48:00,72.3,65.4,30.06,North,0,0.0,5.8,79,0.00,,,0.00,WUHU216HW,2013-08-01 14:48:00,
2013-08-01 10:49:00,72.3,65.0,30.06,West,270,0.0,5.8,78,0.00,,,0.00,WUHU216HW,2013-08-01 14:49:00,
2013-08-01 10:50:00,72.3,65.0,30.07,West,270,0.0,5.8,78,0.00,,,0.00,WUHU216HW,2013-08-01 14:50:00,
2013-08-01 10:51:00,72.5,65.2,30.06,West,270,3.1,5.8,78,0.00,,,0.00,WUHU216HW,2013-08-01 14:51:00,
2013-08-01 10:52:00,72.5,65.2,30.06,West,270,3.1,5.8,78,0.00,,,0.00,WUHU216HW,2013-08-01 14:52:00,
2013-08-01 10:53:00,72.6,65.4,30.06,WNW,293,0.0,3.1,78,0.00,,,0.00,WUHU216HW,2013-08-01 14:53:00,
2013-08-01 10:54:00,72.6,65.4,30.06,WNW,293,0.0,3.1,78,0.00,,,0.00,WUHU216HW,2013-08-01 14:54:00,
2013-08-01 10:55:00,72.6,66.0,30.06,NNW,338,0.0,3.1,79,0.00,,,0.00,WUHU216HW,2013-08-01 14:55:00,
2013-08-01 10:56:00,72.8,66.0,30.06,NNW,338,0.0,3.1,79,0.00,,,0.00,WUHU216HW,2013-08-01 14:56:00,
2013-08-01 10:57:00,72.8,66.0,30.06,NNW,338,0.0,3.1,79,0.00,,,0.00,WUHU216HW,2013-08-01 14:57:00,
2013-08-01 10:58:00,73.2,65.9,30.06,North,0,0.0,3.1,78,0.00,,,0.00,WUHU216HW,2013-08-01 14:58:00,
2013-08-01 10:59:00,73.2,65.9,30.06,North,0,0.0,3.1,78,0.00,,,0.00,WUHU216HW,2013-08-01 14:59:00,
2013-08-01 11:00:00,73.5,66.3,30.06,SW,225,0.0,3.1,78,0.00,,,0.00,WUHU216HW,2013-08-01 15:00:00,
2013-08-01 11:01:00,73.5,66.3,30.06,SW,225,0.0,3.1,78,0.00,,,0.00,WUHU216HW,2013-08-01 15:01:00,
2013-08-01 11:02:00,73.9,66.6,30.06,NNE,23,0.0,3.1,78,0.00,,,0.00,WUHU216HW,2013-08-01 15:02:00,
2013-08-01 11:03:00,73.9,66.6,30.07,NNE,23,0.0,0.0,78,0.00,,,0.00,WUHU216HW,2013-08-01 15:03:00,
2013-08-01 11:04:00,74.1,66.4,30.07,WNW,293,1.7,1.7,77,0.00,,,0.00,WUHU216HW,2013-08-01 15:04:00,
2013-08-01 11:05:00,74.1,66.4,30.06,WNW,293,1.7,1.7,77,0.00,,,0.00,WUHU216HW,2013-08-01 15:05:00,
2013-08-01 11:06:00,74.3,65.8,30.07,West,270,0.0,1.7,75,0.00,,,0.00,WUHU216HW,2013-08-01 15:06:00,
2013-08-01 11:07:00,74.3,65.8,30.07,West,270,0.0,1.7,75,0.00,,,0.00,WUHU216HW,2013-08-01 15:07:00,
2013-08-01 11:08:00,74.3,65.8,30.07,SSW,203,0.0,1.7,75,0.00,,,0.00,WUHU216HW,2013-08-01 15:08:00,
2013-08-01 11:09:00,74.3,65.8,30.07,SSW,203,0.0,1.7,75,0.00,,,0.00,WUHU216HW,2013-08-01 15:09:00,
2013-08-01 11:10:00,74.4,65.8,30.06,NNW,338,0.0,1.7,75,0.00,,,0.00,WUHU216HW,2013-08-01 15:10:00,
2013-08-01 11:11:00,74.4,66.0,30.07,NNW,338,0.0,1.7,75,0.00,,,0.00,WUHU216HW,2013-08-01 15:11:00,
2013-08-01 11:12:00,74.4,66.0,30.07,NNW,338,0.0,1.7,75,0.00,,,0.00,WUHU216HW,2013-08-01 15:12:00,
2013-08-01 11:13:00,74.8,66.3,30.07,WNW,293,3.5,3.5,75,0.00,,,0.00,WUHU216HW,2013-08-01 15:13:00,
2013-08-01 11:14:00,74.8,66.3,30.07,WNW,293,3.5,3.5,75,0.00,,,0.00,WUHU216HW,2013-08-01 15:14:00,
2013-08-01 11:15:00,75.0,66.1,30.06,NNW,338,0.6,3.5,74,0.00,,,0.00,WUHU216HW,2013-08-01 15:15:00,
2013-08-01 11:16:00,75.0,66.1,30.06,NNW,338,0.6,3.5,74,0.00,,,0.00,WUHU216HW,2013-08-01 15:16:00,
2013-08-01 11:17:00,75.2,66.3,30.06,WSW,248,0.6,3.5,74,0.00,,,0.00,WUHU216HW,2013-08-01 15:17:00,
2013-08-01 11:18:00,75.2,66.3,30.07,WSW,248,0.6,3.5,74,0.00,,,0.00,WUHU216HW,2013-08-01 15:18:00,
2013-08-01 11:19:00,75.3,66.1,30.07,North,0,0.0,3.5,73,0.00,,,0.00,WUHU216HW,2013-08-01 15:19:00,
2013-08-01 11:20:00,75.3,66.1,30.07,North,0,0.0,3.5,73,0.00,,,0.00,WUHU216HW,2013-08-01 15:20:00,
2013-08-01 11:21:00,75.7,66.1,30.07,SW,225,2.0,3.5,72,0.00,,,0.00,WUHU216HW,2013-08-01 15:21:00,
2013-08-01 11:22:00,75.7,66.0,30.07,SW,225,2.0,3.5,72,0.00,,,0.00,WUHU216HW,2013-08-01 15:22:00,
2013-08-01 11:23:00,75.7,66.0,30.07,SSW,203,1.3,3.5,72,0.00,,,0.00,WUHU216HW,2013-08-01 15:23:00,
2013-08-01 11:24:00,75.7,66.0,30.07,SSW,203,1.3,2.0,72,0.00,,,0.00,WUHU216HW,2013-08-01 15:24:00,
2013-08-01 11:25:00,75.9,66.6,30.07,WSW,248,0.6,2.0,73,0.00,,,0.00,WUHU216HW,2013-08-01 15:25:00,
2013-08-01 11:26:00,75.9,66.6,30.07,WSW,248,0.6,2.0,73,0.00,,,0.00,WUHU216HW,2013-08-01 15:26:00,
2013-08-01 11:27:00,75.9,66.6,30.07,WSW,248,0.6,2.0,73,0.00,,,0.00,WUHU216HW,2013-08-01 15:27:00,
2013-08-01 11:28:00,75.9,66.6,30.07,West,270,3.5,3.5,73,0.00,,,0.00,WUHU216HW,2013-08-01 15:28:00,
2013-08-01 11:29:00,75.9,66.6,30.07,West,270,3.5,3.5,73,0.00,,,0.00,WUHU216HW,2013-08-01 15:29:00,
2013-08-01 11:30:00,75.9,66.2,30.07,SSW,203,1.3,3.5,72,0.00,,,0.00,WUHU216HW,2013-08-01 15:30:00,
2013-08-01 11:31:00,75.9,66.2,30.07,SSW,203,1.3,3.5,72,0.00,,,0.00,WUHU216HW,2013-08-01 15:31:00,
2013-08-01 11:32:00,75.9,66.2,30.07,SW,225,2.9,3.5,72,0.00,,,0.00,WUHU216HW,2013-08-01 15:32:00,
2013-08-01 11:33:00,75.9,66.2,30.07,SW,225,2.9,3.5,72,0.00,,,0.00,WUHU216HW,2013-08-01 15:33:00,
2013-08-01 11:34:00,75.9,66.2,30.07,SSW,203,5.5,5.5,72,0.00,,,0.00,WUHU216HW,2013-08-01 15:34:00,
2013-08-01 11:35:00,75.9,66.2,30.07,SSW,203,5.5,5.5,72,0.00,,,0.00,WUHU216HW,2013-08-01 15:35:00,
2013-08-01 11:36:00,75.7,65.6,30.07,SW,225,0.0,5.5,71,0.00,,,0.00,WUHU216HW,2013-08-01 15:36:00,
2013-08-01 11:37:00,75.7,65.6,30.07,SW,225,0.0,5.5,71,0.00,,,0.00,WUHU216HW,2013-08-01 15:37:00,
2013-08-01 11:38:00,75.5,65.4,30.07,West,270,1.5,5.5,71,0.00,,,0.00,WUHU216HW,2013-08-01 15:38:00,
2013-08-01 11:39:00,75.5,65.4,30.07,West,270,1.5,5.5,71,0.00,,,0.00,WUHU216HW,2013-08-01 15:39:00,
2013-08-01 11:40:00,75.5,65.8,30.07,SW,225,5.8,5.8,72,0.00,,,0.00,WUHU216HW,2013-08-01 15:40:00,
2013-08-01 11:41:00,75.5,65.8,30.07,SW,225,5.8,5.8,72,0.00,,,0.00,WUHU216HW,2013-08-01 15:41:00,
2013-08-01 11:42:00,75.5,65.8,30.07,SW,225,5.8,5.8,71,0.00,,,0.00,WUHU216HW,2013-08-01 15:42:00,
2013-08-01 11:43:00,75.5,65.4,30.07,West,270,1.3,5.8,71,0.00,,,0.00,WUHU216HW,2013-08-01 15:43:00,
2013-08-01 11:44:00,75.5,65.4,30.07,West,270,1.3,5.8,71,0.00,,,0.00,WUHU216HW,2013-08-01 15:44:00,
2013-08-01 11:45:00,75.5,65.8,30.07,NNW,338,1.7,5.8,72,0.00,,,0.00,WUHU216HW,2013-08-01 15:45:00,
2013-08-01 11:46:00,75.5,65.8,30.07,NNW,338,1.7,5.8,72,0.00,,,0.00,WUHU216HW,2013-08-01 15:46:00,
2013-08-01 11:47:00,75.7,66.0,30.07,West,270,0.6,5.8,72,0.00,,,0.00,WUHU216HW,2013-08-01 15:47:00,
2013-08-01 11:48:00,75.7,66.0,30.07,West,270,0.6,5.8,72,0.00,,,0.00,WUHU216HW,2013-08-01 15:48:00,
2013-08-01 11:49:00,75.9,65.8,30.07,West,270,2.0,5.8,71,0.00,,,0.00,WUHU216HW,2013-08-01 15:49:00,
2013-08-01 11:50:00,75.9,65.8,30.07,West,270,2.0,5.8,71,0.00,,,0.00,WUHU216HW,2013-08-01 15:50:00,
2013-08-01 11:51:00,75.9,65.4,30.07,SW,225,1.7,5.8,70,0.00,,,0.00,WUHU216HW,2013-08-01 15:51:00,
2013-08-01 11:52:00,75.9,65.4,30.07,SW,225,1.7,2.0,70,0.00,,,0.00,WUHU216HW,2013-08-01 15:52:00,
2013-08-01 11:53:00,75.7,65.6,30.07,West,270,0.0,2.0,71,0.00,,,0.00,WUHU216HW,2013-08-01 15:53:00,
2013-08-01 11:54:00,75.7,65.6,30.07,West,270,0.0,2.0,71,0.00,,,0.00,WUHU216HW,2013-08-01 15:54:00,
2013-08-01 11:55:00,75.5,65.4,30.07,West,270,3.5,3.5,71,0.00,,,0.00,WUHU216HW,2013-08-01 15:55:00,
2013-08-01 11:56:00,75.5,65.4,30.07,West,270,3.5,3.5,71,0.00,,,0.00,WUHU216HW,2013-08-01 15:56:00,
2013-08-01 11:57:00,75.7,66.0,30.07,West,270,2.0,3.5,72,0.00,,,0.00,WUHU216HW,2013-08-01 15:57:00,
2013-08-01 11:58:00,75.7,66.0,30.07,West,270,2.0,3.5,72,0.00,,,0.00,WUHU216HW,2013-08-01 15:58:00,
2013-08-01 11:59:00,75.7,66.0,30.07,West,270,2.0,3.5,72,0.00,,,0.00,WUHU216HW,2013-08-01 15:59:00,
2013-08-01 12:00:00,75.9,66.2,30.08,NNW,338,2.2,3.5,72,0.00,,,0.00,WUHU216HW,2013-08-01 16:00:00,
2013-08-01 12:01:00,75.9,66.2,30.07,NNW,338,2.2,3.5,72,0.00,,,0.00,WUHU216HW,2013-08-01 16:01:00,
2013-08-01 12:02:00,76.1,66.0,30.08,SSW,203,5.8,5.8,71,0.00,,,0.00,WUHU216HW,2013-08-01 16:02:00,
2013-08-01 12:03:00,76.1,66.0,30.08,SSW,203,5.8,5.8,71,0.00,,,0.00,WUHU216HW,2013-08-01 16:03:00,
2013-08-01 12:04:00,76.1,66.0,30.08,NE,45,1.5,5.8,71,0.00,,,0.00,WUHU216HW,2013-08-01 16:04:00,
2013-08-01 12:05:00,76.1,66.0,30.08,NE,45,1.5,5.8,71,0.00,,,0.00,WUHU216HW,2013-08-01 16:05:00,
2013-08-01 12:06:00,76.2,66.2,30.08,SSW,203,2.2,5.8,71,0.00,,,0.00,WUHU216HW,2013-08-01 16:06:00,
2013-08-01 12:07:00,76.2,66.2,30.08,SSW,203,2.2,5.8,71,0.00,,,0.00,WUHU216HW,2013-08-01 16:07:00,
2013-08-01 12:08:00,76.2,66.2,30.08,NNE,23,4.4,5.8,71,0.00,,,0.00,WUHU216HW,2013-08-01 16:08:00,
2013-08-01 12:09:00,76.2,66.2,30.08,NNE,23,4.4,5.8,71,0.00,,,0.00,WUHU216HW,2013-08-01 16:09:00,
2013-08-01 12:10:00,76.4,66.0,30.08,WNW,293,0.0,5.8,70,0.00,,,0.00,WUHU216HW,2013-08-01 16:10:00,
2013-08-01 12:11:00,76.4,66.0,30.08,WNW,293,0.0,5.8,70,0.00,,,0.00,WUHU216HW,2013-08-01 16:11:00,
2013-08-01 12:12:00,76.4,66.0,30.08,SSW,203,0.0,5.8,70,0.00,,,0.00,WUHU216HW,2013-08-01 16:12:00,
2013-08-01 12:13:00,76.6,66.5,30.08,SSW,203,0.0,4.4,71,0.00,,,0.00,WUHU216HW,2013-08-01 16:13:00,
2013-08-01 12:14:00,76.6,66.5,30.08,SSW,203,0.0,4.4,71,0.00,,,0.00,WUHU216HW,2013-08-01 16:14:00,
2013-08-01 12:15:00,76.6,66.5,30.08,NNE,23,0.0,4.4,71,0.00,,,0.00,WUHU216HW,2013-08-01 16:15:00,
2013-08-01 12:16:00,76.6,66.5,30.08,NNE,23,0.0,4.4,71,0.00,,,0.00,WUHU216HW,2013-08-01 16:16:00,
2013-08-01 12:17:00,76.8,66.7,30.08,WNW,293,0.8,4.4,71,0.00,,,0.00,WUHU216HW,2013-08-01 16:17:00,
2013-08-01 12:18:00,76.8,66.7,30.08,WNW,293,0.8,4.4,71,0.00,,,0.00,WUHU216HW,2013-08-01 16:18:00,
2013-08-01 12:19:00,76.8,66.3,30.08,WNW,293,0.0,0.8,70,0.00,,,0.00,WUHU216HW,2013-08-01 16:19:00,
2013-08-01 12:20:00,76.8,66.3,30.08,WNW,293,0.0,0.8,70,0.00,,,0.00,WUHU216HW,2013-08-01 16:20:00,
2013-08-01 12:21:00,76.8,65.9,30.08,SSW,203,4.4,4.4,69,0.00,,,0.00,WUHU216HW,2013-08-01 16:21:00,
2013-08-01 12:22:00,76.8,65.9,30.08,SSW,203,4.4,4.4,69,0.00,,,0.00,WUHU216HW,2013-08-01 16:22:00,
2013-08-01 12:23:00,76.6,65.3,30.08,SW,225,7.8,7.8,68,0.00,,,0.00,WUHU216HW,2013-08-01 16:23:00,
2013-08-01 12:24:00,76.6,65.3,30.08,SW,225,7.8,7.8,68,0.00,,,0.00,WUHU216HW,2013-08-01 16:24:00,
2013-08-01 12:25:00,75.9,65.0,30.08,South,180,1.7,7.8,69,0.00,,,0.00,WUHU216HW,2013-08-01 16:25:00,
2013-08-01 12:26:00,75.9,65.0,30.08,South,180,1.7,7.8,69,0.00,,,0.00,WUHU216HW,2013-08-01 16:26:00,
2013-08-01 12:27:00,75.5,65.1,30.08,South,180,1.7,7.8,70,0.00,,,0.00,WUHU216HW,2013-08-01 16:27:00,
2013-08-01 12:28:00,75.5,65.1,30.08,SSW,203,3.8,7.8,70,0.00,,,0.00,WUHU216HW,2013-08-01 16:28:00,
2013-08-01 12:29:00,75.5,65.1,30.08,SSW,203,3.8,7.8,70,0.00,,,0.00,WUHU216HW,2013-08-01 16:29:00,
2013-08-01 12:30:00,75.3,65.3,30.08,SW,225,6.0,7.8,71,0.00,,,0.00,WUHU216HW,2013-08-01 16:30:00,
2013-08-01 12:31:00,75.3,65.3,30.08,SW,225,6.0,7.8,71,0.00,,,0.00,WUHU216HW,2013-08-01 16:31:00,
2013-08-01 12:32:00,75.0,64.9,30.08,West,270,1.7,7.8,71,0.00,,,0.00,WUHU216HW,2013-08-01 16:32:00,
2013-08-01 12:33:00,75.0,64.9,30.08,West,270,1.7,7.8,71,0.00,,,0.00,WUHU216HW,2013-08-01 16:33:00,
2013-08-01 12:34:00,74.8,64.8,30.08,SSW,203,3.1,6.0,71,0.00,,,0.00,WUHU216HW,2013-08-01 16:34:00,
2013-08-01 12:35:00,74.8,64.8,30.08,SSW,203,3.1,6.0,71,0.00,,,0.00,WUHU216HW,2013-08-01 16:35:00,
2013-08-01 12:36:00,74.6,65.0,30.08,SSW,203,4.4,6.0,72,0.00,,,0.00,WUHU216HW,2013-08-01 16:36:00,
2013-08-01 12:37:00,74.6,65.0,30.08,SSW,203,4.4,6.0,72,0.00,,,0.00,WUHU216HW,2013-08-01 16:37:00,
2013-08-01 12:38:00,74.4,64.8,30.08,SSW,203,5.1,6.0,72,0.00,,,0.00,WUHU216HW,2013-08-01 16:38:00,
2013-08-01 12:39:00,74.4,64.8,30.08,SSW,203,5.1,6.0,72,0.00,,,0.00,WUHU216HW,2013-08-01 16:39:00,
2013-08-01 12:40:00,74.4,64.8,30.08,SSW,203,0.0,6.0,72,0.00,,,0.00,WUHU216HW,2013-08-01 16:40:00,
2013-08-01 12:41:00,74.4,64.8,30.08,SSW,203,0.0,6.0,72,0.00,,,0.00,WUHU216HW,2013-08-01 16:41:00,
2013-08-01 12:42:00,74.4,64.8,30.08,SSW,203,2.9,5.1,72,0.00,,,0.00,WUHU216HW,2013-08-01 16:42:00,
2013-08-01 12:43:00,74.4,65.2,30.08,SSW,203,2.9,5.1,73,0.00,,,0.00,WUHU216HW,2013-08-01 16:43:00,
2013-08-01 12:44:00,74.4,65.2,30.08,SSW,203,2.9,5.1,73,0.00,,,0.00,WUHU216HW,2013-08-01 16:44:00,
2013-08-01 12:45:00,74.8,65.2,30.08,West,270,0.0,5.1,72,0.00,,,0.00,WUHU216HW,2013-08-01 16:45:00,
2013-08-01 12:46:00,74.8,65.2,30.08,West,270,0.0,5.1,72,0.00,,,0.00,WUHU216HW,2013-08-01 16:46:00,
2013-08-01 12:47:00,75.0,65.3,30.08,WSW,248,1.5,5.1,72,0.00,,,0.00,WUHU216HW,2013-08-01 16:47:00,
2013-08-01 12:48:00,75.0,65.3,30.08,WSW,248,1.5,5.1,72,0.00,,,0.00,WUHU216HW,2013-08-01 16:48:00,
2013-08-01 12:49:00,75.0,65.3,30.08,WSW,248,0.0,2.9,72,0.00,,,0.00,WUHU216HW,2013-08-01 16:49:00,
2013-08-01 12:50:00,75.0,65.3,30.08,WSW,248,0.0,2.9,72,0.00,,,0.00,WUHU216HW,2013-08-01 16:50:00,
2013-08-01 12:51:00,75.0,65.3,30.08,WSW,248,0.0,2.9,72,0.00,,,0.00,WUHU216HW,2013-08-01 16:51:00,
2013-08-01 12:52:00,75.0,65.3,30.08,WSW,248,0.0,2.9,72,0.00,,,0.00,WUHU216HW,2013-08-01 16:52:00,
2013-08-01 12:53:00,75.2,65.5,30.08,North,0,1.1,2.9,72,0.00,,,0.00,WUHU216HW,2013-08-01 16:53:00,
2013-08-01 12:54:00,75.2,65.5,30.08,North,0,1.1,1.5,72,0.00,,,0.00,WUHU216HW,2013-08-01 16:54:00,
2013-08-01 12:55:00,75.2,65.5,30.08,SW,225,0.0,1.5,72,0.00,,,0.00,WUHU216HW,2013-08-01 16:55:00,
2013-08-01 12:56:00,75.5,65.8,30.08,SW,225,0.0,1.5,72,0.00,,,0.00,WUHU216HW,2013-08-01 16:56:00,
2013-08-01 12:57:00,75.5,65.8,30.08,WSW,248,2.2,2.2,72,0.00,,,0.00,WUHU216HW,2013-08-01 16:57:00,
2013-08-01 12:58:00,75.9,66.2,30.08,WSW,248,2.2,2.2,72,0.00,,,0.00,WUHU216HW,2013-08-01 16:58:00,
2013-08-01 12:59:00,75.9,66.2,30.08,WSW,248,2.2,2.2,72,0.00,,,0.00,WUHU216HW,2013-08-01 16:59:00,
2013-08-01 13:00:00,75.9,65.8,30.08,North,0,0.0,2.2,71,0.00,,,0.00,WUHU216HW,2013-08-01 17:00:00,
2013-08-01 13:01:00,75.9,65.8,30.08,North,0,0.0,2.2,71,0.00,,,0.00,WUHU216HW,2013-08-01 17:01:00,
2013-08-01 13:02:00,76.2,65.8,30.08,West,270,1.7,2.2,70,0.00,,,0.00,WUHU216HW,2013-08-01 17:02:00,
2013-08-01 13:03:00,76.2,65.8,30.08,West,270,1.7,2.2,70,0.00,,,0.00,WUHU216HW,2013-08-01 17:03:00,
2013-08-01 13:04:00,76.1,65.6,30.08,SSW,203,8.7,8.7,70,0.00,,,0.00,WUHU216HW,2013-08-01 17:04:00,
2013-08-01 13:05:00,76.1,65.6,30.08,SSW,203,8.7,8.7,70,0.00,,,0.00,WUHU216HW,2013-08-01 17:05:00,
2013-08-01 13:06:00,75.9,65.4,30.08,WSW,248,4.9,8.7,70,0.00,,,0.00,WUHU216HW,2013-08-01 17:06:00,
2013-08-01 13:07:00,75.9,65.4,30.08,WSW,248,4.9,8.7,70,0.00,,,0.00,WUHU216HW,2013-08-01 17:07:00,
2013-08-01 13:08:00,75.7,65.3,30.08,SW,225,4.4,8.7,70,0.00,,,0.00,WUHU216HW,2013-08-01 17:08:00,
2013-08-01 13:09:00,75.7,65.3,30.08,SW,225,4.4,8.7,70,0.00,,,0.00,WUHU216HW,2013-08-01 17:09:00,
2013-08-01 13:10:00,75.3,65.3,30.08,SW,225,4.4,8.7,71,0.00,,,0.00,WUHU216HW,2013-08-01 17:10:00,
2013-08-01 13:11:00,75.3,65.3,30.08,SW,225,4.4,8.7,71,0.00,,,0.00,WUHU216HW,2013-08-01 17:11:00,
2013-08-01 13:12:00,75.3,65.3,30.08,SW,225,5.8,8.7,71,0.00,,,0.00,WUHU216HW,2013-08-01 17:12:00,
2013-08-01 13:13:00,75.0,64.9,30.08,SW,225,5.8,8.7,71,0.00,,,0.00,WUHU216HW,2013-08-01 17:13:00,
2013-08-01 13:14:00,75.0,64.9,30.08,SW,225,5.8,8.7,71,0.00,,,0.00,WUHU216HW,2013-08-01 17:14:00,
2013-08-01 13:15:00,75.0,64.9,30.08,SW,225,0.0,5.8,71,0.00,,,0.00,WUHU216HW,2013-08-01 17:15:00,
2013-08-01 13:16:00,75.0,64.9,30.08,SW,225,0.0,5.8,71,0.00,,,0.00,WUHU216HW,2013-08-01 17:16:00,
2013-08-01 13:17:00,75.0,65.3,30.08,NW,315,2.6,5.8,72,0.00,,,0.00,WUHU216HW,2013-08-01 17:17:00,
2013-08-01 13:18:00,75.0,65.3,30.08,NW,315,2.6,5.8,72,0.00,,,0.00,WUHU216HW,2013-08-01 17:18:00,
2013-08-01 13:19:00,75.3,65.7,30.08,SW,225,4.9,5.8,72,0.00,,,0.00,WUHU216HW,2013-08-01 17:19:00,
2013-08-01 13:20:00,75.3,65.7,30.08,SW,225,4.9,5.8,72,0.00,,,0.00,WUHU216HW,2013-08-01 17:20:00,
2013-08-01 13:21:00,75.5,65.4,30.08,SW,225,2.0,5.8,71,0.00,,,0.00,WUHU216HW,2013-08-01 17:21:00,
2013-08-01 13:22:00,75.5,65.4,30.08,SW,225,2.0,5.8,71,0.00,,,0.00,WUHU216HW,2013-08-01 17:22:00,
2013-08-01 13:23:00,75.7,65.6,30.08,SW,225,6.9,6.9,71,0.00,,,0.00,WUHU216HW,2013-08-01 17:23:00,
2013-08-01 13:24:00,75.7,65.6,30.08,SW,225,6.9,6.9,71,0.00,,,0.00,WUHU216HW,2013-08-01 17:24:00,
2013-08-01 13:25:00,75.7,65.6,30.08,SSW,203,6.9,6.9,71,0.00,,,0.00,WUHU216HW,2013-08-01 17:25:00,
2013-08-01 13:26:00,75.7,65.6,30.08,SSW,203,6.9,6.9,71,0.00,,,0.00,WUHU216HW,2013-08-01 17:26:00,
2013-08-01 13:27:00,75.7,65.3,30.08,SSW,203,5.3,6.9,70,0.00,,,0.00,WUHU216HW,2013-08-01 17:27:00,
2013-08-01 13:28:00,75.7,65.3,30.08,SSW,203,5.3,6.9,70,0.00,,,0.00,WUHU216HW,2013-08-01 17:28:00,
2013-08-01 13:29:00,75.7,65.3,30.08,SSW,203,5.3,6.9,70,0.00,,,0.00,WUHU216HW,2013-08-01 17:29:00,
2013-08-01 13:30:00,75.5,65.1,30.08,SSW,203,5.1,6.9,70,0.00,,,0.00,WUHU216HW,2013-08-01 17:30:00,
2013-08-01 13:31:00,75.5,65.1,30.08,SSW,203,5.1,6.9,70,0.00,,,0.00,WUHU216HW,2013-08-01 17:31:00,
2013-08-01 13:32:00,75.3,65.3,30.08,NW,315,2.9,6.9,71,0.00,,,0.00,WUHU216HW,2013-08-01 17:32:00,
2013-08-01 13:33:00,75.3,65.3,30.08,NW,315,2.9,6.9,71,0.00,,,0.00,WUHU216HW,2013-08-01 17:33:00,
2013-08-01 13:34:00,75.3,65.3,30.08,SSW,203,5.8,6.9,71,0.00,,,0.00,WUHU216HW,2013-08-01 17:34:00,
2013-08-01 13:35:00,75.3,65.3,30.08,SSW,203,5.8,6.9,71,0.00,,,0.00,WUHU216HW,2013-08-01 17:35:00,
2013-08-01 13:36:00,75.3,65.3,30.08,SSW,203,5.8,5.8,71,0.00,,,0.00,WUHU216HW,2013-08-01 17:36:00,
2013-08-01 13:37:00,75.3,65.3,30.08,SSW,203,0.0,5.8,71,0.00,,,0.00,WUHU216HW,2013-08-01 17:37:00,
2013-08-01 13:38:00,75.2,65.1,30.08,South,180,3.3,5.8,71,0.00,,,0.00,WUHU216HW,2013-08-01 17:38:00,
2013-08-01 13:39:00,75.2,65.1,30.08,South,180,3.3,5.8,71,0.00,,,0.00,WUHU216HW,2013-08-01 17:39:00,
2013-08-01 13:40:00,75.0,64.9,30.08,SSW,203,0.0,5.8,71,0.00,,,0.00,WUHU216HW,2013-08-01 17:40:00,
2013-08-01 13:41:00,75.0,64.9,30.08,SSW,203,0.0,5.8,71,0.00,,,0.00,WUHU216HW,2013-08-01 17:41:00,
2013-08-01 13:42:00,75.0,64.9,30.08,West,270,0.8,5.8,71,0.00,,,0.00,WUHU216HW,2013-08-01 17:42:00,
2013-08-01 13:43:00,74.8,64.8,30.08,West,270,0.8,5.8,71,0.00,,,0.00,WUHU216HW,2013-08-01 17:43:00,
2013-08-01 13:44:00,74.8,64.8,30.08,West,270,0.8,5.8,71,0.00,,,0.00,WUHU216HW,2013-08-01 17:44:00,
2013-08-01 13:45:00,74.8,64.8,30.08,West,270,0.8,5.8,71,0.00,,,0.00,WUHU216HW,2013-08-01 17:45:00,
2013-08-01 13:46:00,75.0,65.3,30.08,North,0,2.6,3.3,72,0.00,,,0.00,WUHU216HW,2013-08-01 17:46:00,
2013-08-01 13:47:00,75.3,65.7,30.08,North,0,0.0,3.3,72,0.00,,,0.00,WUHU216HW,2013-08-01 17:47:00,
2013-08-01 13:48:00,75.3,65.7,30.08,North,0,0.0,3.3,72,0.00,,,0.00,WUHU216HW,2013-08-01 17:48:00,
2013-08-01 13:49:00,75.9,66.2,30.08,South,180,2.6,2.6,72,0.00,,,0.00,WUHU216HW,2013-08-01 17:49:00,
2013-08-01 13:50:00,75.9,66.2,30.08,South,180,2.6,2.6,72,0.00,,,0.00,WUHU216HW,2013-08-01 17:50:00,
2013-08-01 13:51:00,76.6,66.5,30.08,NNW,338,0.6,2.6,71,0.00,,,0.00,WUHU216HW,2013-08-01 17:51:00,
2013-08-01 13:52:00,76.6,66.5,30.08,NNW,338,0.6,2.6,71,0.00,,,0.00,WUHU216HW,2013-08-01 17:52:00,
2013-08-01 13:53:00,77.0,66.5,30.08,SSW,203,7.3,7.3,70,0.00,,,0.00,WUHU216HW,2013-08-01 17:53:00,
2013-08-01 13:54:00,77.0,66.5,30.08,SSW,203,7.3,7.3,70,0.00,,,0.00,WUHU216HW,2013-08-01 17:54:00,
2013-08-01 13:55:00,77.3,66.4,30.08,South,180,8.7,8.7,69,0.00,,,0.00,WUHU216HW,2013-08-01 17:55:00,
2013-08-01 13:56:00,77.3,66.4,30.08,South,180,8.7,8.7,69,0.00,,,0.00,WUHU216HW,2013-08-01 17:56:00,
2013-08-01 13:57:00,77.5,66.1,30.08,SW,225,12.3,12.3,68,0.00,,,0.00,WUHU216HW,2013-08-01 17:57:00,
2013-08-01 13:58:00,77.5,66.1,30.08,SW,225,12.3,12.3,68,0.00,,,0.00,WUHU216HW,2013-08-01 17:58:00,
2013-08-01 13:59:00,77.5,66.1,30.08,SW,225,12.3,12.3,68,0.00,,,0.00,WUHU216HW,2013-08-01 17:59:00,
2013-08-01 14:00:00,77.1,65.3,30.08,SW,225,10.7,12.3,67,0.00,,,0.00,WUHU216HW,2013-08-01 18:00:00,
2013-08-01 14:01:00,77.1,65.3,30.08,SW,225,10.7,12.3,67,0.00,,,0.00,WUHU216HW,2013-08-01 18:01:00,
2013-08-01 14:02:00,76.8,65.4,30.08,SW,225,3.3,12.3,68,0.00,,,0.00,WUHU216HW,2013-08-01 18:02:00,
2013-08-01 14:03:00,76.8,65.4,30.08,SW,225,3.3,12.3,68,0.00,,,0.00,WUHU216HW,2013-08-01 18:03:00,
2013-08-01 14:04:00,76.4,65.1,30.08,SSW,203,4.0,12.3,68,0.00,,,0.00,WUHU216HW,2013-08-01 18:04:00,
2013-08-01 14:05:00,76.4,65.1,30.08,SSW,203,4.0,12.3,68,0.00,,,0.00,WUHU216HW,2013-08-01 18:05:00,
2013-08-01 14:06:00,76.2,65.1,30.08,SSW,203,8.9,12.3,68,0.00,,,0.00,WUHU216HW,2013-08-01 18:06:00,
2013-08-01 14:07:00,76.2,64.9,30.08,SSW,203,8.9,12.3,68,0.00,,,0.00,WUHU216HW,2013-08-01 18:07:00,
2013-08-01 14:08:00,76.1,65.2,30.08,SSW,203,3.5,12.3,69,0.00,,,0.00,WUHU216HW,2013-08-01 18:08:00,
2013-08-01 14:09:00,76.1,65.2,30.08,SSW,203,3.5,10.7,69,0.00,,,0.00,WUHU216HW,2013-08-01 18:09:00,
2013-08-01 14:10:00,76.1,65.2,30.08,WSW,248,3.1,10.7,69,0.00,,,0.00,WUHU216HW,2013-08-01 18:10:00,
2013-08-01 14:11:00,76.1,65.2,30.08,WSW,248,3.1,8.9,69,0.00,,,0.00,WUHU216HW,2013-08-01 18:11:00,
2013-08-01 14:12:00,76.2,65.8,30.08,SW,225,0.6,8.9,70,0.00,,,0.00,WUHU216HW,2013-08-01 18:12:00,
2013-08-01 14:13:00,76.2,65.8,30.08,SW,225,0.6,8.9,70,0.00,,,0.00,WUHU216HW,2013-08-01 18:13:00,
2013-08-01 14:14:00,76.2,65.8,30.08,North,0,0.0,8.9,70,0.00,,,0.00,WUHU216HW,2013-08-01 18:14:00,
2013-08-01 14:15:00,76.6,65.7,30.08,North,0,0.0,8.9,69,0.00,,,0.00,WUHU216HW,2013-08-01 18:15:00,
2013-08-01 14:16:00,76.6,65.7,30.08,North,0,0.0,8.9,69,0.00,,,0.00,WUHU216HW,2013-08-01 18:16:00,
2013-08-01 14:17:00,77.1,66.7,30.08,WNW,293,0.8,3.5,70,0.00,,,0.00,WUHU216HW,2013-08-01 18:17:00,
2013-08-01 14:18:00,77.1,66.7,30.08,WNW,293,0.8,3.5,70,0.00,,,0.00,WUHU216HW,2013-08-01 18:18:00,
2013-08-01 14:19:00,77.5,66.5,30.08,North,0,1.1,3.1,69,0.00,,,0.00,WUHU216HW,2013-08-01 18:19:00,
2013-08-01 14:20:00,77.5,66.5,30.08,North,0,1.1,3.1,69,0.00,,,0.00,WUHU216HW,2013-08-01 18:20:00,
2013-08-01 14:21:00,78.0,66.6,30.08,North,0,0.8,1.1,68,0.00,,,0.00,WUHU216HW,2013-08-01 18:21:00,
2013-08-01 14:22:00,78.0,66.6,30.08,North,0,0.8,1.1,68,0.00,,,0.00,WUHU216HW,2013-08-01 18:22:00,
2013-08-01 14:23:00,78.4,66.5,30.08,WNW,293,1.1,1.1,67,0.00,,,0.00,WUHU216HW,2013-08-01 18:23:00,
2013-08-01 14:24:00,78.4,66.5,30.08,WNW,293,1.1,1.1,67,0.00,,,0.00,WUHU216HW,2013-08-01 18:24:00,
2013-08-01 14:25:00,78.6,66.7,30.08,NNE,23,2.2,2.2,67,0.00,,,0.00,WUHU216HW,2013-08-01 18:25:00,
2013-08-01 14:26:00,78.6,66.7,30.08,NNE,23,2.2,2.2,67,0.00,,,0.00,WUHU216HW,2013-08-01 18:26:00,
2013-08-01 14:27:00,78.6,67.0,30.08,SW,225,0.0,2.2,67,0.00,,,0.00,WUHU216HW,2013-08-01 18:27:00,
2013-08-01 14:28:00,78.9,67.0,30.08,SW,225,0.0,2.2,67,0.00,,,0.00,WUHU216HW,2013-08-01 18:28:00,
2013-08-01 14:29:00,78.9,67.0,30.08,NNE,23,3.8,3.8,67,0.00,,,0.00,WUHU216HW,2013-08-01 18:29:00,
2013-08-01 14:30:00,79.3,66.9,30.08,NNE,23,3.8,3.8,66,0.00,,,0.00,WUHU216HW,2013-08-01 18:30:00,
2013-08-01 14:31:00,79.3,66.9,30.08,NNE,23,3.8,3.8,66,0.00,,,0.00,WUHU216HW,2013-08-01 18:31:00,
2013-08-01 14:32:00,79.7,67.3,30.08,NE,45,0.0,3.8,66,0.00,,,0.00,WUHU216HW,2013-08-01 18:32:00,
2013-08-01 14:33:00,79.7,67.3,30.08,NE,45,0.0,3.8,66,0.00,,,0.00,WUHU216HW,2013-08-01 18:33:00,
2013-08-01 14:34:00,79.8,66.5,30.08,SSW,203,1.5,3.8,64,0.00,,,0.00,WUHU216HW,2013-08-01 18:34:00,
2013-08-01 14:35:00,79.8,66.5,30.08,SSW,203,1.5,3.8,64,0.00,,,0.00,WUHU216HW,2013-08-01 18:35:00,
2013-08-01 14:36:00,79.7,66.4,30.08,SW,225,2.4,3.8,64,0.00,,,0.00,WUHU216HW,2013-08-01 18:36:00,
2013-08-01 14:37:00,79.7,66.4,30.08,SW,225,2.4,3.8,64,0.00,,,0.00,WUHU216HW,2013-08-01 18:37:00,
2013-08-01 14:38:00,79.5,66.2,30.08,SSW,203,5.3,5.3,64,0.00,,,0.00,WUHU216HW,2013-08-01 18:38:00,
2013-08-01 14:39:00,79.5,66.2,30.08,SSW,203,5.3,5.3,64,0.00,,,0.00,WUHU216HW,2013-08-01 18:39:00,
2013-08-01 14:40:00,78.9,65.7,30.08,SW,225,4.6,5.3,64,0.00,,,0.00,WUHU216HW,2013-08-01 18:40:00,
2013-08-01 14:41:00,78.9,65.7,30.08,SW,225,4.6,5.3,64,0.00,,,0.00,WUHU216HW,2013-08-01 18:41:00,
2013-08-01 14:42:00,78.6,65.4,30.08,WNW,293,6.9,6.9,64,0.00,,,0.00,WUHU216HW,2013-08-01 18:42:00,
2013-08-01 14:43:00,78.6,65.4,30.08,WNW,293,6.9,6.9,64,0.00,,,0.00,WUHU216HW,2013-08-01 18:43:00,
2013-08-01 14:44:00,78.6,65.4,30.08,WNW,293,6.9,6.9,64,0.00,,,0.00,WUHU216HW,2013-08-01 18:44:00,
2013-08-01 14:45:00,78.6,65.4,30.08,WNW,293,6.9,6.9,64,0.00,,,0.00,WUHU216HW,2013-08-01 18:45:00,
2013-08-01 14:46:00,78.0,65.3,30.08,WSW,248,0.6,6.9,65,0.00,,,0.00,WUHU216HW,2013-08-01 18:46:00,
2013-08-01 14:47:00,78.0,65.3,30.08,North,0,0.8,6.9,65,0.00,,,0.00,WUHU216HW,2013-08-01 18:47:00,
2013-08-01 14:48:00,78.0,65.3,30.08,North,0,0.8,6.9,65,0.00,,,0.00,WUHU216HW,2013-08-01 18:48:00,
2013-08-01 14:49:00,78.2,65.9,30.08,NNW,338,0.6,6.9,66,0.00,,,0.00,WUHU216HW,2013-08-01 18:49:00,
2013-08-01 14:50:00,78.2,65.9,30.08,NNW,338,0.6,6.9,66,0.00,,,0.00,WUHU216HW,2013-08-01 18:50:00,
2013-08-01 14:51:00,78.6,66.2,30.08,WSW,248,1.3,6.9,66,0.00,,,0.00,WUHU216HW,2013-08-01 18:51:00,
2013-08-01 14:52:00,78.6,66.2,30.08,WSW,248,1.3,6.9,66,0.00,,,0.00,WUHU216HW,2013-08-01 18:52:00,
2013-08-01 14:53:00,78.9,66.1,30.08,SW,225,6.4,6.9,65,0.00,,,0.00,WUHU216HW,2013-08-01 18:53:00,
2013-08-01 14:54:00,78.9,66.1,30.08,SW,225,6.4,6.9,65,0.00,,,0.00,WUHU216HW,2013-08-01 18:54:00,
2013-08-01 14:55:00,78.9,65.7,30.08,SSW,203,5.3,6.4,64,0.00,,,0.00,WUHU216HW,2013-08-01 18:55:00,
2013-08-01 14:56:00,78.9,65.7,30.08,SSW,203,5.3,6.4,64,0.00,,,0.00,WUHU216HW,2013-08-01 18:56:00,
2013-08-01 14:57:00,78.4,65.2,30.08,SW,225,4.6,6.4,64,0.00,,,0.00,WUHU216HW,2013-08-01 18:57:00,
2013-08-01 14:58:00,78.4,65.2,30.08,SW,225,4.6,6.4,64,0.00,,,0.00,WUHU216HW,2013-08-01 18:58:00,
2013-08-01 14:59:00,78.4,65.2,30.08,SW,225,4.6,6.4,64,0.00,,,0.00,WUHU216HW,2013-08-01 18:59:00,
2013-08-01 15:00:00,78.0,65.3,30.08,WSW,248,0.0,6.4,65,0.00,,,0.00,WUHU216HW,2013-08-01 19:00:00,
2013-08-01 15:01:00,78.0,65.3,30.08,WSW,248,0.0,6.4,65,0.00,,,0.00,WUHU216HW,2013-08-01 19:01:00,
2013-08-01 15:02:00,78.0,65.3,30.08,NW,315,1.5,6.4,65,0.00,,,0.00,WUHU216HW,2013-08-01 19:02:00,
2013-08-01 15:03:00,78.0,65.3,30.08,NW,315,1.5,6.4,65,0.00,,,0.00,WUHU216HW,2013-08-01 19:03:00,
2013-08-01 15:04:00,78.4,65.6,30.08,NW,315,4.4,5.3,65,0.00,,,0.00,WUHU216HW,2013-08-01 19:04:00,
2013-08-01 15:05:00,78.4,65.6,30.08,NW,315,4.4,5.3,65,0.00,,,0.00,WUHU216HW,2013-08-01 19:05:00,
2013-08-01 15:06:00,78.4,65.6,30.08,WNW,293,0.0,4.6,65,0.00,,,0.00,WUHU216HW,2013-08-01 19:06:00,
2013-08-01 15:07:00,78.4,65.6,30.08,WNW,293,0.0,4.6,65,0.00,,,0.00,WUHU216HW,2013-08-01 19:07:00,
2013-08-01 15:08:00,78.6,65.8,30.08,WSW,248,0.0,4.6,65,0.00,,,0.00,WUHU216HW,2013-08-01 19:08:00,
2013-08-01 15:09:00,78.6,65.8,30.08,WSW,248,0.0,4.4,65,0.00,,,0.00,WUHU216HW,2013-08-01 19:09:00,
2013-08-01 15:10:00,79.3,66.5,30.08,SSW,203,1.5,4.4,65,0.00,,,0.00,WUHU216HW,2013-08-01 19:10:00,
2013-08-01 15:11:00,79.3,66.5,30.08,SSW,203,1.5,4.4,65,0.00,,,0.00,WUHU216HW,2013-08-01 19:11:00,
2013-08-01 15:12:00,79.3,66.7,30.08,WSW,248,0.8,4.4,65,0.00,,,0.00,WUHU216HW,2013-08-01 19:12:00,
2013-08-01 15:13:00,79.5,66.7,30.08,WSW,248,0.8,4.4,65,0.00,,,0.00,WUHU216HW,2013-08-01 19:13:00,
2013-08-01 15:14:00,79.8,66.1,30.08,NNW,338,1.1,4.4,63,0.00,,,0.00,WUHU216HW,2013-08-01 19:14:00,
2013-08-01 15:15:00,79.8,66.1,30.08,NNW,338,1.1,1.5,63,0.00,,,0.00,WUHU216HW,2013-08-01 19:15:00,
2013-08-01 15:16:00,79.8,66.1,30.08,NNW,338,1.1,1.5,63,0.00,,,0.00,WUHU216HW,2013-08-01 19:16:00,
2013-08-01 15:17:00,79.8,66.1,30.08,West,270,0.0,1.5,63,0.00,,,0.00,WUHU216HW,2013-08-01 19:17:00,
2013-08-01 15:18:00,79.8,66.1,30.08,West,270,0.0,1.5,63,0.00,,,0.00,WUHU216HW,2013-08-01 19:18:00,
2013-08-01 15:19:00,79.8,66.1,30.08,NW,315,0.0,1.5,63,0.00,,,0.00,WUHU216HW,2013-08-01 19:19:00,
2013-08-01 15:20:00,79.8,66.1,30.08,NW,315,0.0,1.5,63,0.00,,,0.00,WUHU216HW,2013-08-01 19:20:00,
2013-08-01 15:21:00,79.8,66.1,30.08,SSW,203,5.3,5.3,63,0.00,,,0.00,WUHU216HW,2013-08-01 19:21:00,
2013-08-01 15:22:00,79.8,66.1,30.08,SSW,203,5.3,5.3,63,0.00,,,0.00,WUHU216HW,2013-08-01 19:22:00,
2013-08-01 15:23:00,79.7,65.5,30.08,SW,225,3.3,5.3,62,0.00,,,0.00,WUHU216HW,2013-08-01 19:23:00,
2013-08-01 15:24:00,79.7,65.5,30.08,SW,225,3.3,5.3,62,0.00,,,0.00,WUHU216HW,2013-08-01 19:24:00,
2013-08-01 15:25:00,79.5,65.3,30.08,SW,225,4.9,5.3,62,0.00,,,0.00,WUHU216HW,2013-08-01 19:25:00,
2013-08-01 15:26:00,79.5,65.3,30.08,SW,225,4.9,5.3,62,0.00,,,0.00,WUHU216HW,2013-08-01 19:26:00,
2013-08-01 15:27:00,79.3,65.2,30.08,North,0,0.6,5.3,62,0.00,,,0.00,WUHU216HW,2013-08-01 19:27:00,
2013-08-01 15:28:00,79.3,65.2,30.08,North,0,0.6,5.3,62,0.00,,,0.00,WUHU216HW,2013-08-01 19:28:00,
2013-08-01 15:29:00,79.3,65.2,30.08,West,270,0.0,5.3,62,0.00,,,0.00,WUHU216HW,2013-08-01 19:29:00,
2013-08-01 15:30:00,79.3,65.6,30.08,West,270,0.0,5.3,63,0.00,,,0.00,WUHU216HW,2013-08-01 19:30:00,
2013-08-01 15:31:00,79.3,65.6,30.08,West,270,0.0,5.3,63,0.00,,,0.00,WUHU216HW,2013-08-01 19:31:00,
2013-08-01 15:32:00,79.5,65.3,30.08,SSW,203,3.8,4.9,62,0.00,,,0.00,WUHU216HW,2013-08-01 19:32:00,
2013-08-01 15:33:00,79.5,65.3,30.08,SSW,203,3.8,4.9,62,0.00,,,0.00,WUHU216HW,2013-08-01 19:33:00,
2013-08-01 15:34:00,79.8,65.7,30.08,North,0,5.5,5.5,62,0.00,,,0.00,WUHU216HW,2013-08-01 19:34:00,
2013-08-01 15:35:00,79.8,65.7,30.08,North,0,5.5,5.5,62,0.00,,,0.00,WUHU216HW,2013-08-01 19:35:00,
2013-08-01 15:36:00,79.8,65.8,30.09,North,0,5.5,5.5,62,0.00,,,0.00,WUHU216HW,2013-08-01 19:36:00,
2013-08-01 15:37:00,80.0,65.8,30.08,WNW,293,1.7,5.5,62,0.00,,,0.00,WUHU216HW,2013-08-01 19:37:00,
2013-08-01 15:38:00,80.2,65.5,30.09,West,270,0.6,5.5,61,0.00,,,0.00,WUHU216HW,2013-08-01 19:38:00,
2013-08-01 15:39:00,80.2,65.5,30.09,West,270,0.6,5.5,61,0.00,,,0.00,WUHU216HW,2013-08-01 19:39:00,
2013-08-01 15:40:00,80.4,65.7,30.09,West,270,1.1,5.5,61,0.00,,,0.00,WUHU216HW,2013-08-01 19:40:00,
2013-08-01 15:41:00,80.4,65.7,30.09,West,270,1.1,5.5,61,0.00,,,0.00,WUHU216HW,2013-08-01 19:41:00,
2013-08-01 15:42:00,80.7,66.0,30.09,West,270,0.0,5.5,61,0.00,,,0.00,WUHU216HW,2013-08-01 19:42:00,
2013-08-01 15:43:00,80.7,66.0,30.09,West,270,0.0,5.5,61,0.00,,,0.00,WUHU216HW,2013-08-01 19:43:00,
2013-08-01 15:44:00,81.1,65.9,30.09,WNW,293,0.8,5.5,60,0.00,,,0.00,WUHU216HW,2013-08-01 19:44:00,
2013-08-01 15:45:00,81.1,65.9,30.09,WNW,293,0.8,5.5,60,0.00,,,0.00,WUHU216HW,2013-08-01 19:45:00,
2013-08-01 15:46:00,81.1,65.9,30.09,WNW,293,0.8,1.7,60,0.00,,,0.00,WUHU216HW,2013-08-01 19:46:00,
2013-08-01 15:47:00,81.1,65.9,30.09,North,0,0.0,1.1,60,0.00,,,0.00,WUHU216HW,2013-08-01 19:47:00,
2013-08-01 15:48:00,81.6,65.9,30.09,North,0,0.0,1.1,59,0.00,,,0.00,WUHU216HW,2013-08-01 19:48:00,
2013-08-01 15:49:00,82.0,65.7,30.09,North,0,0.0,1.1,58,0.00,,,0.00,WUHU216HW,2013-08-01 19:49:00,
2013-08-01 15:50:00,82.0,65.7,30.08,NNE,23,1.5,1.5,58,0.00,,,0.00,WUHU216HW,2013-08-01 19:50:00,
2013-08-01 15:51:00,82.2,65.3,30.09,WNW,293,2.2,2.2,57,0.00,,,0.00,WUHU216HW,2013-08-01 19:51:00,
2013-08-01 15:52:00,82.2,65.3,30.08,WNW,293,2.2,2.2,57,0.00,,,0.00,WUHU216HW,2013-08-01 19:52:00,
2013-08-01 15:53:00,82.0,65.2,30.08,West,270,0.0,2.2,57,0.00,,,0.00,WUHU216HW,2013-08-01 19:53:00,
2013-08-01 15:54:00,82.0,65.2,30.08,West,270,0.0,2.2,57,0.00,,,0.00,WUHU216HW,2013-08-01 19:54:00,
2013-08-01 15:55:00,81.6,65.4,30.08,West,270,0.0,2.2,58,0.00,,,0.00,WUHU216HW,2013-08-01 19:55:00,
2013-08-01 15:56:00,81.6,65.4,30.08,NW,315,0.0,2.2,58,0.00,,,0.00,WUHU216HW,2013-08-01 19:56:00,
2013-08-01 15:57:00,81.6,65.7,30.08,North,0,0.0,2.2,58,0.00,,,0.00,WUHU216HW,2013-08-01 19:57:00,
2013-08-01 15:58:00,82.0,65.7,30.08,North,0,0.0,2.2,58,0.00,,,0.00,WUHU216HW,2013-08-01 19:58:00,
2013-08-01 15:59:00,82.0,65.8,30.08,North,0,0.0,2.2,58,0.00,,,0.00,WUHU216HW,2013-08-01 19:59:00,
2013-08-01 16:00:00,82.2,65.8,30.08,North,0,0.8,2.2,58,0.00,,,0.00,WUHU216HW,2013-08-01 20:00:00,
2013-08-01 16:01:00,82.2,65.8,30.08,North,0,0.8,2.2,58,0.00,,,0.00,WUHU216HW,2013-08-01 20:01:00,
2013-08-01 16:02:00,82.5,65.7,30.08,SSW,203,4.2,4.2,57,0.00,,,0.00,WUHU216HW,2013-08-01 20:02:00,
2013-08-01 16:03:00,82.5,65.7,30.08,SSW,203,4.2,4.2,57,0.00,,,0.00,WUHU216HW,2013-08-01 20:03:00,
2013-08-01 16:04:00,82.7,65.3,30.08,SSW,203,2.9,4.2,56,0.00,,,0.00,WUHU216HW,2013-08-01 20:04:00,
2013-08-01 16:05:00,82.7,65.3,30.08,SSW,203,2.9,4.2,56,0.00,,,0.00,WUHU216HW,2013-08-01 20:05:00,
2013-08-01 16:06:00,82.4,64.4,30.08,SSW,203,6.2,6.2,55,0.00,,,0.00,WUHU216HW,2013-08-01 20:06:00,
2013-08-01 16:07:00,82.4,64.4,30.08,SSW,203,6.2,6.2,55,0.00,,,0.00,WUHU216HW,2013-08-01 20:07:00,
2013-08-01 16:08:00,81.8,64.0,30.08,SW,225,2.4,6.2,55,0.00,,,0.00,WUHU216HW,2013-08-01 20:08:00,
2013-08-01 16:09:00,81.8,64.0,30.08,SW,225,2.4,6.2,55,0.00,,,0.00,WUHU216HW,2013-08-01 20:09:00,
2013-08-01 16:10:00,81.3,64.0,30.08,West,270,2.2,6.2,56,0.00,,,0.00,WUHU216HW,2013-08-01 20:10:00,
2013-08-01 16:11:00,81.3,64.0,30.08,West,270,2.2,6.2,56,0.00,,,0.00,WUHU216HW,2013-08-01 20:11:00,
2013-08-01 16:12:00,81.1,64.4,30.08,North,0,0.0,6.2,57,0.00,,,0.00,WUHU216HW,2013-08-01 20:12:00,
2013-08-01 16:13:00,81.1,64.4,30.08,North,0,0.0,6.2,57,0.00,,,0.00,WUHU216HW,2013-08-01 20:13:00,
2013-08-01 16:14:00,81.3,64.4,30.08,WSW,248,0.0,6.2,57,0.00,,,0.00,WUHU216HW,2013-08-01 20:14:00,
2013-08-01 16:15:00,81.3,65.0,30.08,WSW,248,0.0,6.2,58,0.00,,,0.00,WUHU216HW,2013-08-01 20:15:00,
2013-08-01 16:16:00,81.3,65.0,30.08,WSW,248,0.0,6.2,58,0.00,,,0.00,WUHU216HW,2013-08-01 20:16:00,
2013-08-01 16:17:00,81.6,65.4,30.08,North,0,1.5,2.4,58,0.00,,,0.00,WUHU216HW,2013-08-01 20:17:00,
2013-08-01 16:18:00,81.6,65.4,30.08,North,0,1.5,2.4,58,0.00,,,0.00,WUHU216HW,2013-08-01 20:18:00,
2013-08-01 16:19:00,82.2,65.3,30.08,North,0,0.0,2.2,57,0.00,,,0.00,WUHU216HW,2013-08-01 20:19:00,
2013-08-01 16:20:00,82.2,65.3,30.08,North,0,0.0,2.2,57,0.00,,,0.00,WUHU216HW,2013-08-01 20:20:00,
2013-08-01 16:21:00,82.9,65.5,30.08,North,0,0.8,1.5,56,0.00,,,0.00,WUHU216HW,2013-08-01 20:21:00,
2013-08-01 16:22:00,82.9,65.5,30.08,North,0,0.8,1.5,56,0.00,,,0.00,WUHU216HW,2013-08-01 20:22:00,
2013-08-01 16:23:00,83.3,65.9,30.08,WNW,293,0.0,1.5,56,0.00,,,0.00,WUHU216HW,2013-08-01 20:23:00,
2013-08-01 16:24:00,83.3,65.9,30.08,WNW,293,0.0,1.5,56,0.00,,,0.00,WUHU216HW,2013-08-01 20:24:00,
2013-08-01 16:25:00,83.6,65.7,30.08,West,270,0.6,1.5,55,0.00,,,0.00,WUHU216HW,2013-08-01 20:25:00,
2013-08-01 16:26:00,83.6,65.7,30.08,West,270,0.6,1.5,55,0.00,,,0.00,WUHU216HW,2013-08-01 20:26:00,
2013-08-01 16:27:00,83.8,65.9,30.08,NNW,338,1.5,1.5,55,0.00,,,0.00,WUHU216HW,2013-08-01 20:27:00,
2013-08-01 16:28:00,83.8,65.9,30.08,NNW,338,1.5,1.5,55,0.00,,,0.00,WUHU216HW,2013-08-01 20:28:00,
2013-08-01 16:29:00,84.0,66.1,30.08,WNW,293,0.0,1.5,55,0.00,,,0.00,WUHU216HW,2013-08-01 20:29:00,
2013-08-01 16:30:00,84.0,66.1,30.08,WNW,293,0.0,1.5,55,0.00,,,0.00,WUHU216HW,2013-08-01 20:30:00,
2013-08-01 16:31:00,84.0,66.1,30.08,WNW,293,0.0,1.5,55,0.00,,,0.00,WUHU216HW,2013-08-01 20:31:00,
2013-08-01 16:32:00,84.2,65.7,30.08,NNE,23,2.0,2.0,54,0.00,,,0.00,WUHU216HW,2013-08-01 20:32:00,
2013-08-01 16:33:00,84.2,65.7,30.08,NNE,23,2.0,2.0,54,0.00,,,0.00,WUHU216HW,2013-08-01 20:33:00,
2013-08-01 16:34:00,84.3,65.9,30.08,North,0,4.2,4.2,54,0.00,,,0.00,WUHU216HW,2013-08-01 20:34:00,
2013-08-01 16:35:00,84.3,65.9,30.08,North,0,4.2,4.2,54,0.00,,,0.00,WUHU216HW,2013-08-01 20:35:00,
2013-08-01 16:36:00,84.7,65.7,30.08,NNE,23,2.2,4.2,53,0.00,,,0.00,WUHU216HW,2013-08-01 20:36:00,
2013-08-01 16:37:00,84.7,65.7,30.08,NNE,23,2.2,4.2,53,0.00,,,0.00,WUHU216HW,2013-08-01 20:37:00,
2013-08-01 16:38:00,85.2,65.6,30.08,North,0,4.6,4.6,52,0.00,,,0.00,WUHU216HW,2013-08-01 20:38:00,
2013-08-01 16:39:00,85.2,65.6,30.08,North,0,4.6,4.6,52,0.00,,,0.00,WUHU216HW,2013-08-01 20:39:00,
2013-08-01 16:40:00,85.6,66.0,30.08,North,0,1.3,4.6,52,0.00,,,0.00,WUHU216HW,2013-08-01 20:40:00,
2013-08-01 16:41:00,85.6,66.0,30.08,North,0,1.3,4.6,52,0.00,,,0.00,WUHU216HW,2013-08-01 20:41:00,
2013-08-01 16:42:00,85.8,66.1,30.08,North,0,0.0,4.6,52,0.00,,,0.00,WUHU216HW,2013-08-01 20:42:00,
2013-08-01 16:43:00,85.8,66.1,30.08,North,0,0.0,4.6,52,0.00,,,0.00,WUHU216HW,2013-08-01 20:43:00,
2013-08-01 16:44:00,86.1,66.1,30.08,NW,315,0.0,4.6,51,0.00,,,0.00,WUHU216HW,2013-08-01 20:44:00,
2013-08-01 16:45:00,86.1,65.9,30.08,NW,315,0.0,4.6,51,0.00,,,0.00,WUHU216HW,2013-08-01 20:45:00,
2013-08-01 16:46:00,86.1,65.9,30.08,NW,315,0.0,4.6,51,0.00,,,0.00,WUHU216HW,2013-08-01 20:46:00,
2013-08-01 16:47:00,86.1,65.9,30.08,WSW,248,0.0,4.6,51,0.00,,,0.00,WUHU216HW,2013-08-01 20:47:00,
2013-08-01 16:48:00,86.1,65.9,30.08,WSW,248,0.0,4.6,51,0.00,,,0.00,WUHU216HW,2013-08-01 20:48:00,
2013-08-01 16:49:00,86.1,65.4,30.08,West,270,0.6,4.6,50,0.00,,,0.00,WUHU216HW,2013-08-01 20:49:00,
2013-08-01 16:50:00,86.1,65.4,30.08,West,270,0.6,1.3,50,0.00,,,0.00,WUHU216HW,2013-08-01 20:50:00,
2013-08-01 16:51:00,85.8,65.6,30.08,NW,315,0.0,1.3,51,0.00,,,0.00,WUHU216HW,2013-08-01 20:51:00,
2013-08-01 16:52:00,85.8,65.6,30.08,NW,315,0.0,0.6,51,0.00,,,0.00,WUHU216HW,2013-08-01 20:52:00,
2013-08-01 16:53:00,85.8,65.1,30.08,NNW,338,0.0,0.6,50,0.00,,,0.00,WUHU216HW,2013-08-01 20:53:00,
2013-08-01 16:54:00,85.8,65.1,30.08,NNW,338,0.0,0.6,50,0.00,,,0.00,WUHU216HW,2013-08-01 20:54:00,
2013-08-01 16:55:00,85.8,65.1,30.08,NW,315,0.0,0.6,50,0.00,,,0.00,WUHU216HW,2013-08-01 20:55:00,
2013-08-01 16:56:00,85.8,65.1,30.08,NW,315,0.0,0.6,50,0.00,,,0.00,WUHU216HW,2013-08-01 20:56:00,
2013-08-01 16:57:00,85.8,65.1,30.08,North,0,0.0,0.6,50,0.00,,,0.00,WUHU216HW,2013-08-01 20:57:00,
2013-08-01 16:58:00,85.8,65.1,30.08,North,0,0.0,0.6,50,0.00,,,0.00,WUHU216HW,2013-08-01 20:58:00,
2013-08-01 16:59:00,85.8,64.5,30.08,North,0,1.3,1.3,49,0.00,,,0.00,WUHU216HW,2013-08-01 20:59:00,
2013-08-01 17:00:00,85.8,64.5,30.08,North,0,1.3,1.3,49,0.00,,,0.00,WUHU216HW,2013-08-01 21:00:00,
2013-08-01 17:01:00,85.8,64.5,30.08,North,0,1.3,1.3,49,0.00,,,0.00,WUHU216HW,2013-08-01 21:01:00,
2013-08-01 17:02:00,85.8,64.5,30.08,NW,315,0.0,1.3,49,0.00,,,0.00,WUHU216HW,2013-08-01 21:02:00,
2013-08-01 17:03:00,85.8,64.5,30.08,NW,315,0.0,1.3,49,0.00,,,0.00,WUHU216HW,2013-08-01 21:03:00,
2013-08-01 17:04:00,86.1,64.8,30.08,North,0,0.0,1.3,49,0.00,,,0.00,WUHU216HW,2013-08-01 21:04:00,
2013-08-01 17:05:00,86.1,64.8,30.08,North,0,0.0,1.3,49,0.00,,,0.00,WUHU216HW,2013-08-01 21:05:00,
2013-08-01 17:06:00,86.3,64.3,30.08,NNW,338,0.0,1.3,48,0.00,,,0.00,WUHU216HW,2013-08-01 21:06:00,
2013-08-01 17:07:00,86.3,64.3,30.08,NNW,338,0.0,1.3,48,0.00,,,0.00,WUHU216HW,2013-08-01 21:07:00,
2013-08-01 17:08:00,86.5,64.5,30.08,NNW,338,1.1,1.3,48,0.00,,,0.00,WUHU216HW,2013-08-01 21:08:00,
2013-08-01 17:09:00,86.5,64.5,30.08,NNW,338,1.1,1.3,48,0.00,,,0.00,WUHU216HW,2013-08-01 21:09:00,
2013-08-01 17:10:00,86.7,64.6,30.08,NNW,338,1.1,1.3,48,0.00,,,0.00,WUHU216HW,2013-08-01 21:10:00,
2013-08-01 17:11:00,86.7,64.6,30.08,WSW,248,4.0,4.0,48,0.00,,,0.00,WUHU216HW,2013-08-01 21:11:00,
2013-08-01 17:12:00,86.7,64.6,30.08,North,0,1.5,4.0,48,0.00,,,0.00,WUHU216HW,2013-08-01 21:12:00,
2013-08-01 17:13:00,86.7,64.6,30.08,North,0,1.5,4.0,48,0.00,,,0.00,WUHU216HW,2013-08-01 21:13:00,
2013-08-01 17:14:00,86.7,64.0,30.08,West,270,0.0,4.0,47,0.00,,,0.00,WUHU216HW,2013-08-01 21:14:00,
2013-08-01 17:15:00,86.7,64.0,30.08,West,270,0.0,4.0,47,0.00,,,0.00,WUHU216HW,2013-08-01 21:15:00,
2013-08-01 17:16:00,86.7,64.0,30.08,West,270,0.0,4.0,47,0.00,,,0.00,WUHU216HW,2013-08-01 21:16:00,
2013-08-01 17:17:00,86.7,64.6,30.08,NW,315,0.0,4.0,48,0.00,,,0.00,WUHU216HW,2013-08-01 21:17:00,
2013-08-01 17:18:00,86.7,64.6,30.08,NW,315,0.0,4.0,48,0.00,,,0.00,WUHU216HW,2013-08-01 21:18:00,
2013-08-01 17:19:00,86.9,64.2,30.08,North,0,1.3,4.0,47,0.00,,,0.00,WUHU216HW,2013-08-01 21:19:00,
2013-08-01 17:20:00,86.9,64.2,30.07,North,0,1.3,4.0,47,0.00,,,0.00,WUHU216HW,2013-08-01 21:20:00,
2013-08-01 17:21:00,86.7,63.4,30.07,NNE,23,0.8,1.5,46,0.00,,,0.00,WUHU216HW,2013-08-01 21:21:00,
2013-08-01 17:22:00,86.7,63.4,30.07,NNE,23,0.8,1.5,46,0.00,,,0.00,WUHU216HW,2013-08-01 21:22:00,
2013-08-01 17:23:00,86.7,63.4,30.07,NNE,23,0.0,1.3,46,0.00,,,0.00,WUHU216HW,2013-08-01 21:23:00,
2013-08-01 17:24:00,86.7,63.4,30.07,NNE,23,0.0,1.3,46,0.00,,,0.00,WUHU216HW,2013-08-01 21:24:00,
2013-08-01 17:25:00,86.9,62.9,30.07,North,0,2.0,2.0,45,0.00,,,0.00,WUHU216HW,2013-08-01 21:25:00,
2013-08-01 17:26:00,86.9,62.9,30.07,North,0,2.0,2.0,45,0.00,,,0.00,WUHU216HW,2013-08-01 21:26:00,
2013-08-01 17:27:00,86.9,62.9,30.07,NNE,23,0.6,2.0,45,0.00,,,0.00,WUHU216HW,2013-08-01 21:27:00,
2013-08-01 17:28:00,86.9,62.9,30.07,NNE,23,0.6,2.0,45,0.00,,,0.00,WUHU216HW,2013-08-01 21:28:00,
2013-08-01 17:29:00,86.9,62.9,30.07,North,0,0.0,2.0,45,0.00,,,0.00,WUHU216HW,2013-08-01 21:29:00,
2013-08-01 17:30:00,87.0,62.4,30.07,North,0,0.0,2.0,44,0.00,,,0.00,WUHU216HW,2013-08-01 21:30:00,
2013-08-01 17:31:00,87.0,62.4,30.07,North,0,0.0,2.0,44,0.00,,,0.00,WUHU216HW,2013-08-01 21:31:00,
2013-08-01 17:32:00,87.0,62.4,30.07,WNW,293,0.0,2.0,44,0.00,,,0.00,WUHU216HW,2013-08-01 21:32:00,
2013-08-01 17:33:00,87.0,62.4,30.07,WNW,293,0.0,2.0,44,0.00,,,0.00,WUHU216HW,2013-08-01 21:33:00,
2013-08-01 17:42:00,87.6,61.7,30.07,NW,315,0.0,2.6,42,0.00,,,0.00,WUHU216HW,2013-08-01 21:42:00,
2013-08-01 17:43:00,87.6,61.7,30.07,NW,315,0.0,2.6,42,0.00,,,0.00,WUHU216HW,2013-08-01 21:43:00,
2013-08-01 17:44:00,87.6,61.7,30.07,North,0,0.0,2.6,42,0.00,,,0.00,WUHU216HW,2013-08-01 21:44:00,
2013-08-01 17:45:00,87.6,61.7,30.07,North,0,0.0,0.0,42,0.00,,,0.00,WUHU216HW,2013-08-01 21:45:00,
2013-08-01 17:46:00,87.6,61.7,30.07,NNW,338,0.0,0.0,42,0.00,,,0.00,WUHU216HW,2013-08-01 21:46:00,
2013-08-01 17:47:00,87.6,61.7,30.07,NNW,338,0.0,0.0,42,0.00,,,0.00,WUHU216HW,2013-08-01 21:47:00,
2013-08-01 17:48:00,87.6,61.7,30.07,NNW,338,0.0,0.0,42,0.00,,,0.00,WUHU216HW,2013-08-01 21:48:00,
2013-08-01 17:49:00,87.6,61.0,30.07,NNW,338,0.0,0.0,41,0.00,,,0.00,WUHU216HW,2013-08-01 21:49:00,
2013-08-01 17:50:00,87.6,61.0,30.07,NNW,338,0.0,0.0,41,0.00,,,0.00,WUHU216HW,2013-08-01 21:50:00,
2013-08-01 17:51:00,87.6,61.0,30.07,NNW,338,0.0,0.0,41,0.00,,,0.00,WUHU216HW,2013-08-01 21:51:00,
2013-08-01 17:52:00,87.6,61.0,30.07,NNW,338,0.0,0.0,41,0.00,,,0.00,WUHU216HW,2013-08-01 21:52:00,
2013-08-01 17:53:00,87.8,61.2,30.07,NNW,338,0.0,0.0,41,0.00,,,0.00,WUHU216HW,2013-08-01 21:53:00,
2013-08-01 17:54:00,87.8,61.2,30.07,NNW,338,0.0,0.0,41,0.00,,,0.00,WUHU216HW,2013-08-01 21:54:00,
2013-08-01 17:55:00,87.9,61.3,30.07,North,0,0.0,0.0,41,0.00,,,0.00,WUHU216HW,2013-08-01 21:55:00,
2013-08-01 17:56:00,87.9,61.3,30.07,North,0,0.0,0.0,41,0.00,,,0.00,WUHU216HW,2013-08-01 21:56:00,
2013-08-01 17:57:00,87.9,61.3,30.07,SW,225,0.0,0.0,41,0.00,,,0.00,WUHU216HW,2013-08-01 21:57:00,
2013-08-01 17:58:00,87.9,61.3,30.07,SW,225,0.0,0.0,41,0.00,,,0.00,WUHU216HW,2013-08-01 21:58:00,
2013-08-01 17:59:00,87.8,61.3,30.07,North,0,0.0,0.0,41,0.00,,,0.00,WUHU216HW,2013-08-01 21:59:00,
2013-08-01 18:00:00,87.8,61.2,30.07,North,0,0.0,0.0,41,0.00,,,0.00,WUHU216HW,2013-08-01 22:00:00,
2013-08-01 18:01:00,87.8,61.2,30.08,North,0,0.0,0.0,41,0.00,,,0.00,WUHU216HW,2013-08-01 22:01:00,
2013-08-01 18:02:00,87.8,61.2,30.08,North,0,0.0,0.0,41,0.00,,,0.00,WUHU216HW,2013-08-01 22:02:00,
2013-08-01 18:03:00,87.8,61.2,30.08,North,0,0.0,0.0,41,0.00,,,0.00,WUHU216HW,2013-08-01 22:03:00,
2013-08-01 18:04:00,87.8,60.6,30.08,North,0,1.1,1.1,40,0.00,,,0.00,WUHU216HW,2013-08-01 22:04:00,
2013-08-01 18:05:00,87.8,60.6,30.08,North,0,1.1,1.1,40,0.00,,,0.00,WUHU216HW,2013-08-01 22:05:00,
2013-08-01 18:06:00,87.9,60.7,30.07,SSW,203,2.9,2.9,40,0.00,,,0.00,WUHU216HW,2013-08-01 22:06:00,
2013-08-01 18:07:00,87.9,60.7,30.07,SSW,203,2.9,2.9,40,0.00,,,0.00,WUHU216HW,2013-08-01 22:07:00,
2013-08-01 18:08:00,87.9,60.7,30.08,North,0,0.0,2.9,40,0.00,,,0.00,WUHU216HW,2013-08-01 22:08:00,
2013-08-01 18:09:00,87.9,60.7,30.08,North,0,0.0,2.9,40,0.00,,,0.00,WUHU216HW,2013-08-01 22:09:00,
2013-08-01 18:10:00,87.8,60.6,30.07,NNW,338,0.0,2.9,40,0.00,,,0.00,WUHU216HW,2013-08-01 22:10:00,
2013-08-01 18:11:00,87.8,60.6,30.07,NNW,338,0.0,2.9,40,0.00,,,0.00,WUHU216HW,2013-08-01 22:11:00,
2013-08-01 18:12:00,87.9,60.7,30.07,North,0,0.0,2.9,40,0.00,,,0.00,WUHU216HW,2013-08-01 22:12:00,
2013-08-01 18:13:00,87.9,60.7,30.07,North,0,0.0,2.9,40,0.00,,,0.00,WUHU216HW,2013-08-01 22:13:00,
2013-08-01 18:14:00,87.9,60.7,30.07,ENE,68,0.0,2.9,40,0.00,,,0.00,WUHU216HW,2013-08-01 22:14:00,
2013-08-01 18:15:00,87.9,60.7,30.07,ENE,68,0.0,2.9,40,0.00,,,0.00,WUHU216HW,2013-08-01 22:15:00,
2013-08-01 18:16:00,87.9,59.9,30.07,ENE,68,0.0,2.9,40,0.00,,,0.00,WUHU216HW,2013-08-01 22:16:00,
2013-08-01 18:17:00,87.9,59.9,30.07,North,0,0.0,0.0,39,0.00,,,0.00,WUHU216HW,2013-08-01 22:17:00,
2013-08-01 18:18:00,87.9,59.9,30.07,North,0,0.0,0.0,39,0.00,,,0.00,WUHU216HW,2013-08-01 22:18:00,
2013-08-01 18:19:00,87.9,59.1,30.07,NNW,338,0.0,0.0,38,0.00,,,0.00,WUHU216HW,2013-08-01 22:19:00,
2013-08-01 18:20:00,87.9,59.1,30.07,NNW,338,0.0,0.0,38,0.00,,,0.00,WUHU216HW,2013-08-01 22:20:00,
2013-08-01 18:21:00,87.9,59.9,30.07,North,0,0.0,0.0,39,0.00,,,0.00,WUHU216HW,2013-08-01 22:21:00,
2013-08-01 18:22:00,87.9,59.9,30.07,North,0,0.0,0.0,39,0.00,,,0.00,WUHU216HW,2013-08-01 22:22:00,
2013-08-01 18:23:00,87.9,59.9,30.07,North,0,0.0,0.0,39,0.00,,,0.00,WUHU216HW,2013-08-01 22:23:00,
2013-08-01 18:24:00,87.9,59.9,30.07,North,0,0.0,0.0,39,0.00,,,0.00,WUHU216HW,2013-08-01 22:24:00,
2013-08-01 18:25:00,87.9,59.1,30.07,NNW,338,0.8,0.8,38,0.00,,,0.00,WUHU216HW,2013-08-01 22:25:00,
2013-08-01 18:26:00,87.9,59.1,30.07,NNW,338,0.8,0.8,38,0.00,,,0.00,WUHU216HW,2013-08-01 22:26:00,
2013-08-01 18:27:00,87.9,59.1,30.07,NNW,338,0.0,0.8,38,0.00,,,0.00,WUHU216HW,2013-08-01 22:27:00,
2013-08-01 18:28:00,87.9,59.1,30.07,NNW,338,0.0,0.8,38,0.00,,,0.00,WUHU216HW,2013-08-01 22:28:00,
2013-08-01 18:29:00,87.9,59.1,30.07,NNW,338,0.0,0.8,38,0.00,,,0.00,WUHU216HW,2013-08-01 22:29:00,
2013-08-01 18:30:00,87.0,62.4,30.07,North,0,0.0,2.0,44,0.00,,,0.00,WUHU216HW,2013-08-01 22:30:00,
2013-08-01 18:31:00,87.9,59.1,30.07,NNW,338,0.0,0.8,38,0.00,,,0.00,WUHU216HW,2013-08-01 22:31:00,
2013-08-01 18:32:00,87.9,59.1,30.06,NNE,23,0.0,0.8,38,0.00,,,0.00,WUHU216HW,2013-08-01 22:32:00,
2013-08-01 18:33:00,87.9,59.1,30.06,NNE,23,0.0,0.8,38,0.00,,,0.00,WUHU216HW,2013-08-01 22:33:00,
2013-08-01 18:34:00,87.8,59.0,30.06,NE,45,0.0,0.8,38,0.00,,,0.00,WUHU216HW,2013-08-01 22:34:00,
2013-08-01 18:35:00,87.8,59.0,30.06,NE,45,0.0,0.8,38,0.00,,,0.00,WUHU216HW,2013-08-01 22:35:00,
2013-08-01 18:36:00,87.6,58.8,30.06,North,0,0.0,0.0,38,0.00,,,0.00,WUHU216HW,2013-08-01 22:36:00,
2013-08-01 18:37:00,87.6,58.8,30.06,North,0,0.0,0.0,38,0.00,,,0.00,WUHU216HW,2013-08-01 22:37:00,
2013-08-01 18:38:00,87.8,59.0,30.06,NNE,23,0.0,0.0,38,0.00,,,0.00,WUHU216HW,2013-08-01 22:38:00,
2013-08-01 18:39:00,87.8,59.0,30.06,NNE,23,0.0,0.0,38,0.00,,,0.00,WUHU216HW,2013-08-01 22:39:00,
2013-08-01 18:40:00,87.8,59.0,30.06,NNE,23,0.0,0.0,38,0.00,,,0.00,WUHU216HW,2013-08-01 22:40:00,
2013-08-01 18:41:00,87.8,59.0,30.06,NNE,23,0.0,0.0,38,0.00,,,0.00,WUHU216HW,2013-08-01 22:41:00,
2013-08-01 18:42:00,87.6,58.8,30.06,NE,45,0.0,0.0,38,0.00,,,0.00,WUHU216HW,2013-08-01 22:42:00,
2013-08-01 18:43:00,87.6,58.8,30.06,NE,45,0.0,0.0,38,0.00,,,0.00,WUHU216HW,2013-08-01 22:43:00,
2013-08-01 18:44:00,87.6,58.8,30.06,NNE,23,0.0,0.0,38,0.00,,,0.00,WUHU216HW,2013-08-01 22:44:00,
2013-08-01 18:45:00,87.6,58.8,30.06,NNE,23,0.0,0.0,38,0.00,,,0.00,WUHU216HW,2013-08-01 22:45:00,
2013-08-01 18:46:00,87.6,58.8,30.06,NNE,23,0.0,0.0,38,0.00,,,0.00,WUHU216HW,2013-08-01 22:46:00,
2013-08-01 18:47:00,87.6,58.8,30.06,NNE,23,0.0,0.0,38,0.00,,,0.00,WUHU216HW,2013-08-01 22:47:00,
2013-08-01 18:48:00,87.6,58.8,30.06,NNE,23,0.0,0.0,38,0.00,,,0.00,WUHU216HW,2013-08-01 22:48:00,
2013-08-01 18:49:00,87.4,58.6,30.06,NE,45,0.0,0.0,38,0.00,,,0.00,WUHU216HW,2013-08-01 22:49:00,
2013-08-01 18:50:00,87.4,58.6,30.06,NE,45,0.0,0.0,38,0.00,,,0.00,WUHU216HW,2013-08-01 22:50:00,
2013-08-01 18:51:00,87.0,59.1,30.06,North,0,0.0,0.0,39,0.00,,,0.00,WUHU216HW,2013-08-01 22:51:00,
2013-08-01 18:52:00,87.0,59.1,30.06,North,0,0.0,0.0,39,0.00,,,0.00,WUHU216HW,2013-08-01 22:52:00,
2013-08-01 18:53:00,87.0,59.1,30.06,North,0,0.0,0.0,39,0.00,,,0.00,WUHU216HW,2013-08-01 22:53:00,
2013-08-01 18:54:00,87.0,59.1,30.06,North,0,0.0,0.0,39,0.00,,,0.00,WUHU216HW,2013-08-01 22:54:00,
2013-08-01 18:55:00,87.0,59.1,30.06,North,0,0.0,0.0,39,0.00,,,0.00,WUHU216HW,2013-08-01 22:55:00,
2013-08-01 18:56:00,87.0,59.1,30.06,North,0,0.0,0.0,39,0.00,,,0.00,WUHU216HW,2013-08-01 22:56:00,
2013-08-01 18:57:00,86.9,59.0,30.06,North,0,0.0,0.0,39,0.00,,,0.00,WUHU216HW,2013-08-01 22:57:00,
2013-08-01 18:58:00,86.9,59.0,30.06,North,0,0.0,0.0,39,0.00,,,0.00,WUHU216HW,2013-08-01 22:58:00,
2013-08-01 18:59:00,86.9,59.0,30.06,North,0,1.3,1.3,39,0.00,,,0.00,WUHU216HW,2013-08-01 22:59:00,
2013-08-01 19:00:00,86.9,59.0,30.06,North,0,1.3,1.3,39,0.00,,,0.00,WUHU216HW,2013-08-01 23:00:00,
2013-08-01 19:01:00,86.9,59.0,30.06,North,0,1.3,1.3,39,0.00,,,0.00,WUHU216HW,2013-08-01 23:01:00,
2013-08-01 19:02:00,86.7,58.8,30.05,North,0,0.0,1.3,39,0.00,,,0.00,WUHU216HW,2013-08-01 23:02:00,
2013-08-01 19:03:00,86.7,58.8,30.06,North,0,0.0,1.3,39,0.00,,,0.00,WUHU216HW,2013-08-01 23:03:00,
2013-08-01 19:04:00,86.5,58.6,30.06,North,0,0.0,1.3,39,0.00,,,0.00,WUHU216HW,2013-08-01 23:04:00,
2013-08-01 19:05:00,86.5,58.6,30.05,North,0,0.0,1.3,39,0.00,,,0.00,WUHU216HW,2013-08-01 23:05:00,
2013-08-01 19:06:00,86.5,58.6,30.05,North,0,0.0,1.3,39,0.00,,,0.00,WUHU216HW,2013-08-01 23:06:00,
2013-08-01 19:07:00,86.5,58.6,30.05,North,0,0.8,1.3,39,0.00,,,0.00,WUHU216HW,2013-08-01 23:07:00,
2013-08-01 19:08:00,86.3,58.5,30.06,NNE,23,0.0,1.3,39,0.00,,,0.00,WUHU216HW,2013-08-01 23:08:00,
2013-08-01 19:19:00,86.3,58.5,30.05,NNE,23,0.0,1.3,39,0.00,,,0.00,WUHU216HW,2013-08-01 23:19:00,
2013-08-01 19:24:00,85.2,58.3,30.06,NE,45,0.0,1.3,40,0.00,,,0.00,WUHU216HW,2013-08-01 23:24:00,
2013-08-01 19:30:00,84.9,58.6,30.06,North,0,0.0,0.8,41,0.00,,,0.00,WUHU216HW,2013-08-01 23:30:00,
2013-08-01 19:35:00,84.7,58.4,30.06,NNW,338,0.0,0.8,41,0.00,,,0.00,WUHU216HW,2013-08-01 23:35:00,
2013-08-01 19:40:00,84.5,58.9,30.06,North,0,0.0,0.0,42,0.00,,,0.00,WUHU216HW,2013-08-01 23:40:00,
2013-08-01 19:45:00,84.0,58.4,30.05,NNE,23,0.0,0.0,42,0.00,,,0.00,WUHU216HW,2013-08-01 23:45:00,
2013-08-01 19:50:00,83.8,57.6,30.05,North,0,0.6,0.6,41,0.00,,,0.00,WUHU216HW,2013-08-01 23:50:00,
2013-08-01 19:55:00,83.4,57.3,30.05,North,0,0.0,0.6,41,0.00,,,0.00,WUHU216HW,2013-08-01 23:55:00,
2013-08-01 20:00:00,83.1,58.2,30.05,North,0,0.0,0.6,43,0.00,,,0.00,WUHU216HW,2013-08-02 00:00:00,
2013-08-01 20:05:00,82.9,58.0,30.05,North,0,0.0,0.0,43,0.00,,,0.00,WUHU216HW,2013-08-02 00:05:00,
2013-08-01 20:10:00,82.5,57.7,30.05,North,0,1.1,1.1,43,0.00,,,0.00,WUHU216HW,2013-08-02 00:10:00,
2013-08-01 20:15:00,82.0,56.6,30.05,North,0,0.0,1.3,42,0.00,,,0.00,WUHU216HW,2013-08-02 00:15:00,
2013-08-01 20:20:00,81.5,57.3,30.05,North,0,0.0,1.3,44,0.00,,,0.00,WUHU216HW,2013-08-02 00:20:00,
2013-08-01 20:25:00,81.1,57.6,30.05,North,0,0.0,0.0,45,0.00,,,0.00,WUHU216HW,2013-08-02 00:25:00,
2013-08-01 20:31:00,80.2,57.4,30.05,North,0,0.0,0.0,46,0.00,,,0.00,WUHU216HW,2013-08-02 00:31:00,
2013-08-01 20:36:00,79.5,57.4,30.05,North,0,0.0,0.0,47,0.00,,,0.00,WUHU216HW,2013-08-02 00:36:00,
2013-08-01 20:41:00,79.1,57.1,30.05,North,0,0.0,0.0,47,0.00,,,0.00,WUHU216HW,2013-08-02 00:41:00,
2013-08-01 20:46:00,78.4,57.0,30.05,North,0,0.0,0.0,48,0.00,,,0.00,WUHU216HW,2013-08-02 00:46:00,
2013-08-01 20:51:00,78.0,57.3,30.05,North,0,0.0,0.0,49,0.00,,,0.00,WUHU216HW,2013-08-02 00:51:00,
2013-08-01 20:56:00,77.5,57.5,30.06,North,0,0.0,0.0,50,0.00,,,0.00,WUHU216HW,2013-08-02 00:56:00,
2013-08-01 21:01:00,77.0,58.0,30.06,North,0,0.0,0.0,52,0.00,,,0.00,WUHU216HW,2013-08-02 01:01:00,
2013-08-01 21:07:00,76.2,57.3,30.06,North,0,0.0,0.0,52,0.00,,,0.00,WUHU216HW,2013-08-02 01:07:00,
2013-08-01 21:12:00,75.7,56.8,30.06,North,0,0.0,0.0,52,0.00,,,0.00,WUHU216HW,2013-08-02 01:12:00,
2013-08-01 21:17:00,75.2,56.7,30.06,North,0,0.0,0.0,53,0.00,,,0.00,WUHU216HW,2013-08-02 01:17:00,
2013-08-01 21:22:00,74.4,56.1,30.06,North,0,0.0,0.0,53,0.00,,,0.00,WUHU216HW,2013-08-02 01:22:00,
2013-08-01 21:27:00,73.7,55.4,30.07,North,0,0.0,0.0,53,0.00,,,0.00,WUHU216HW,2013-08-02 01:27:00,
2013-08-01 21:32:00,72.6,55.4,30.06,North,0,0.0,0.0,55,0.00,,,0.00,WUHU216HW,2013-08-02 01:32:00,
2013-08-01 21:37:00,72.1,55.9,30.06,North,0,0.0,0.0,57,0.00,,,0.00,WUHU216HW,2013-08-02 01:37:00,
2013-08-01 21:43:00,71.7,55.6,30.06,North,0,0.0,0.0,57,0.00,,,0.00,WUHU216HW,2013-08-02 01:43:00,
2013-08-01 21:48:00,70.8,55.3,30.06,North,0,0.0,0.0,58,0.00,,,0.00,WUHU216HW,2013-08-02 01:48:00,
2013-08-01 21:53:00,70.3,55.3,30.06,North,0,0.0,0.0,59,0.00,,,0.00,WUHU216HW,2013-08-02 01:53:00,
2013-08-01 21:58:00,69.8,55.4,30.06,North,0,0.0,0.0,60,0.00,,,0.00,WUHU216HW,2013-08-02 01:58:00,
2013-08-01 22:03:00,69.6,55.2,30.06,North,0,0.0,0.0,60,0.00,,,0.00,WUHU216HW,2013-08-02 02:03:00,
2013-08-01 22:08:00,69.6,55.6,30.06,North,0,0.0,0.0,61,0.00,,,0.00,WUHU216HW,2013-08-02 02:08:00,
2013-08-01 22:14:00,69.0,55.5,30.06,North,0,0.0,0.0,62,0.00,,,0.00,WUHU216HW,2013-08-02 02:14:00,
2013-08-01 22:19:00,68.5,55.4,30.06,North,0,0.0,0.0,63,0.00,,,0.00,WUHU216HW,2013-08-02 02:19:00,
2013-08-01 22:24:00,68.5,55.4,30.06,North,0,0.0,0.0,63,0.00,,,0.00,WUHU216HW,2013-08-02 02:24:00,
2013-08-01 22:29:00,68.3,55.6,30.06,North,0,0.0,0.0,64,0.00,,,0.00,WUHU216HW,2013-08-02 02:29:00,
2013-08-01 22:34:00,68.0,55.4,30.06,North,0,0.0,0.0,64,0.00,,,0.00,WUHU216HW,2013-08-02 02:34:00,
2013-08-01 22:39:00,67.2,55.0,30.06,North,0,0.0,0.0,65,0.00,,,0.00,WUHU216HW,2013-08-02 02:39:00,
2013-08-01 22:44:00,66.9,54.7,30.06,North,0,0.0,0.0,65,0.00,,,0.00,WUHU216HW,2013-08-02 02:44:00,
2013-08-01 22:49:00,66.3,55.0,30.06,North,0,0.0,0.0,67,0.00,,,0.00,WUHU216HW,2013-08-02 02:49:00,
2013-08-01 22:55:00,66.3,55.0,30.07,North,0,0.0,0.0,67,0.00,,,0.00,WUHU216HW,2013-08-02 02:55:00,
2013-08-01 22:59:00,66.2,55.2,30.07,North,0,0.0,0.0,68,0.00,,,0.00,WUHU216HW,2013-08-02 02:59:00,
2013-08-01 23:05:00,66.2,55.2,30.07,North,0,0.0,0.0,67,0.00,,,0.00,WUHU216HW,2013-08-02 03:05:00,
2013-08-01 23:10:00,66.0,54.6,30.07,North,0,0.0,0.0,67,0.00,,,0.00,WUHU216HW,2013-08-02 03:10:00,
2013-08-01 23:15:00,66.0,55.1,30.07,North,0,0.0,0.0,68,0.00,,,0.00,WUHU216HW,2013-08-02 03:15:00,
2013-08-01 23:20:00,65.8,54.9,30.06,North,0,0.0,0.0,68,0.00,,,0.00,WUHU216HW,2013-08-02 03:20:00,
2013-08-01 23:25:00,65.6,54.7,30.07,North,0,0.0,0.0,68,0.00,,,0.00,WUHU216HW,2013-08-02 03:25:00,
2013-08-01 23:30:00,65.3,54.4,30.07,North,0,0.0,0.0,68,0.00,,,0.00,WUHU216HW,2013-08-02 03:30:00,
2013-08-01 23:35:00,64.7,54.3,30.07,North,0,0.0,0.0,69,0.00,,,0.00,WUHU216HW,2013-08-02 03:35:00,
2013-08-01 23:40:00,64.4,54.5,30.07,North,0,0.0,0.0,69,0.00,,,0.00,WUHU216HW,2013-08-02 03:40:00,
2013-08-01 23:45:00,64.2,54.3,30.07,North,0,0.0,0.0,70,0.00,,,0.00,WUHU216HW,2013-08-02 03:45:00,
2013-08-01 23:50:00,64.0,54.1,30.07,North,0,0.0,0.0,70,0.00,,,0.00,WUHU216HW,2013-08-02 03:50:00,
2013-08-01 23:55:00,63.6,53.7,30.07,North,0,0.0,0.0,70,0.00,,,0.00,WUHU216HW,2013-08-02 03:55:00,